AFR770 LFPG-TFFR
Flight info
| Callsign | AFR770 |
|---|---|
| Flight time | 7h 59m |
| Altitude | 38000 |
| Route | LGL UN491 UPALO/N0485F370 UN585 FEJAC DCT BADUR DCT REGHI/M084F380 DCT ETIKI DCT 47N015W 46N020W 40N030W/M084F400 33N040W 29N045W 25N050W 21N055W DCT BNJEE/N0478F400 DCT BOSET BOSET2A |
| Aircraft | A359/H-SDE2E3GHIJ3J4J5LM1ORWXY/LB1D1 |
Departure
| Time | 2026-05-05 12:05 |
|---|---|
| Airport | Charles de Gaulle International Airport (LFPG) |
Arrival
| Time | 2026-05-05 20:04 |
|---|---|
| Airport | Maryse Condé International Airport (TFFR) |
| Time | Latitude | Longitude | Altitude | Speed | Heading |
|---|---|---|---|---|---|
| 2026-05-05 11:36 | 49.00109 | 2.57533 | 360 ft | 0 kts | 357° |
| 2026-05-05 11:49 | 49.00098 | 2.57534 | 362 ft | 4 kts | 0° |
| 2026-05-05 11:49 | 49.00079 | 2.57532 | 360 ft | 4 kts | 331° |
| 2026-05-05 11:50 | 49.00063 | 2.57549 | 367 ft | 4 kts | 305° |
| 2026-05-05 11:50 | 49.00054 | 2.57577 | 364 ft | 4 kts | 268° |
| 2026-05-05 11:50 | 49.00056 | 2.57616 | 364 ft | 3 kts | 265° |
| 2026-05-05 11:50 | 49.00057 | 2.57627 | 364 ft | 0 kts | 265° |
| 2026-05-05 11:55 | 49.00055 | 2.57581 | 360 ft | 7 kts | 265° |
| 2026-05-05 11:55 | 49.00051 | 2.57508 | 363 ft | 7 kts | 265° |
| 2026-05-05 11:55 | 49.00048 | 2.57444 | 366 ft | 6 kts | 265° |
| 2026-05-05 11:56 | 49.00045 | 2.57393 | 366 ft | 4 kts | 265° |
| 2026-05-05 11:56 | 49.00042 | 2.57353 | 362 ft | 6 kts | 260° |
| 2026-05-05 11:56 | 49.00021 | 2.57298 | 368 ft | 4 kts | 222° |
| 2026-05-05 11:56 | 48.99992 | 2.57281 | 367 ft | 7 kts | 200° |
| 2026-05-05 11:57 | 48.99957 | 2.57224 | 363 ft | 9 kts | 252° |
| 2026-05-05 11:57 | 48.99950 | 2.57121 | 365 ft | 11 kts | 266° |
| 2026-05-05 11:57 | 48.99913 | 2.57024 | 364 ft | 10 kts | 214° |
| 2026-05-05 11:57 | 48.99865 | 2.56976 | 365 ft | 7 kts | 219° |
| 2026-05-05 11:58 | 48.99851 | 2.56929 | 365 ft | 5 kts | 256° |
| 2026-05-05 11:58 | 48.99846 | 2.56871 | 366 ft | 6 kts | 264° |
| 2026-05-05 11:58 | 48.99842 | 2.56795 | 363 ft | 8 kts | 265° |
| 2026-05-05 11:58 | 48.99836 | 2.56702 | 360 ft | 9 kts | 265° |
| 2026-05-05 11:59 | 48.99830 | 2.56595 | 364 ft | 11 kts | 265° |
| 2026-05-05 11:59 | 48.99824 | 2.56477 | 360 ft | 12 kts | 266° |
| 2026-05-05 11:59 | 48.99818 | 2.56350 | 360 ft | 12 kts | 265° |
| 2026-05-05 11:59 | 48.99811 | 2.56216 | 364 ft | 13 kts | 265° |
| 2026-05-05 12:00 | 48.99803 | 2.56077 | 366 ft | 13 kts | 265° |
| 2026-05-05 12:00 | 48.99798 | 2.55946 | 366 ft | 11 kts | 264° |
| 2026-05-05 12:00 | 48.99781 | 2.55854 | 366 ft | 7 kts | 248° |
| 2026-05-05 12:00 | 48.99758 | 2.55763 | 368 ft | 11 kts | 253° |
| 2026-05-05 12:01 | 48.99746 | 2.55622 | 360 ft | 15 kts | 264° |
| 2026-05-05 12:01 | 48.99739 | 2.55448 | 360 ft | 17 kts | 266° |
| 2026-05-05 12:01 | 48.99728 | 2.55263 | 367 ft | 18 kts | 265° |
| 2026-05-05 12:01 | 48.99722 | 2.55136 | 365 ft | 8 kts | 265° |
| 2026-05-05 12:02 | 48.99687 | 2.55098 | 366 ft | 6 kts | 173° |
| 2026-05-05 12:02 | 48.99662 | 2.55134 | 366 ft | 6 kts | 125° |
| 2026-05-05 12:02 | 48.99642 | 2.55191 | 368 ft | 7 kts | 116° |
| 2026-05-05 12:02 | 48.99619 | 2.55262 | 365 ft | 8 kts | 116° |
| 2026-05-05 12:03 | 48.99591 | 2.55345 | 365 ft | 11 kts | 118° |
| 2026-05-05 12:03 | 48.99581 | 2.55452 | 362 ft | 7 kts | 86° |
| 2026-05-05 12:03 | 48.99581 | 2.55455 | 362 ft | 0 kts | 86° |
| 2026-05-05 12:04 | 48.99581 | 2.55465 | 360 ft | 8 kts | 86° |
| 2026-05-05 12:04 | 48.99603 | 2.55872 | 360 ft | 69 kts | 84° |
| 2026-05-05 12:04 | 48.99657 | 2.56890 | 366 ft | 123 kts | 86° |
| 2026-05-05 12:04 | 48.99739 | 2.58435 | 364 ft | 169 kts | 84° |
| 2026-05-05 12:05 | 48.99823 | 2.60209 | 1069 ft | 160 kts | 82° |
| 2026-05-05 12:05 | 48.99916 | 2.61918 | 1652 ft | 170 kts | 81° |
| 2026-05-05 12:05 | 49.00030 | 2.63829 | 1952 ft | 193 kts | 82° |
| 2026-05-05 12:05 | 49.00148 | 2.65942 | 2421 ft | 207 kts | 83° |
| 2026-05-05 12:06 | 49.00270 | 2.68250 | 2759 ft | 230 kts | 83° |
| 2026-05-05 12:06 | 49.00406 | 2.70770 | 3248 ft | 245 kts | 84° |
| 2026-05-05 12:06 | 49.00541 | 2.73369 | 3970 ft | 247 kts | 84° |
| 2026-05-05 12:06 | 49.00663 | 2.75993 | 4704 ft | 250 kts | 86° |
| 2026-05-05 12:07 | 49.00572 | 2.78655 | 5402 ft | 255 kts | 96° |
| 2026-05-05 12:07 | 49.00315 | 2.81340 | 6095 ft | 259 kts | 98° |
| 2026-05-05 12:07 | 49.00034 | 2.84066 | 6815 ft | 260 kts | 98° |
| 2026-05-05 12:07 | 48.99754 | 2.86812 | 7505 ft | 264 kts | 98° |
| 2026-05-05 12:08 | 48.99475 | 2.89583 | 8249 ft | 267 kts | 97° |
| 2026-05-05 12:08 | 48.99195 | 2.92384 | 9013 ft | 270 kts | 97° |
| 2026-05-05 12:08 | 48.98907 | 2.95192 | 9752 ft | 274 kts | 98° |
| 2026-05-05 12:08 | 48.98346 | 2.98011 | 10238 ft | 288 kts | 115° |
| 2026-05-05 12:09 | 48.97055 | 3.00446 | 10484 ft | 311 kts | 140° |
| 2026-05-05 12:09 | 48.95028 | 3.01872 | 10749 ft | 336 kts | 166° |
| 2026-05-05 12:09 | 48.92645 | 3.01795 | 11152 ft | 353 kts | 192° |
| 2026-05-05 12:09 | 48.90426 | 3.00157 | 11779 ft | 362 kts | 217° |
| 2026-05-05 12:10 | 48.88807 | 2.97335 | 12431 ft | 369 kts | 239° |
| 2026-05-05 12:10 | 48.87962 | 2.93547 | 13103 ft | 374 kts | 262° |
| 2026-05-05 12:10 | 48.87671 | 2.89598 | 13807 ft | 379 kts | 263° |
| 2026-05-05 12:10 | 48.87313 | 2.85609 | 14475 ft | 383 kts | 260° |
| 2026-05-05 12:11 | 48.86830 | 2.81614 | 15203 ft | 386 kts | 257° |
| 2026-05-05 12:11 | 48.86270 | 2.77600 | 15820 ft | 391 kts | 256° |
| 2026-05-05 12:11 | 48.85661 | 2.73564 | 16484 ft | 394 kts | 255° |
| 2026-05-05 12:11 | 48.85025 | 2.69500 | 17125 ft | 397 kts | 255° |
| 2026-05-05 12:12 | 48.84371 | 2.65415 | 17742 ft | 400 kts | 254° |
| 2026-05-05 12:12 | 48.83702 | 2.61286 | 18328 ft | 404 kts | 254° |
| 2026-05-05 12:12 | 48.83026 | 2.57149 | 18876 ft | 406 kts | 254° |
| 2026-05-05 12:12 | 48.82341 | 2.52974 | 19463 ft | 408 kts | 254° |
| 2026-05-05 12:13 | 48.81652 | 2.48793 | 20074 ft | 410 kts | 254° |
| 2026-05-05 12:13 | 48.80960 | 2.44602 | 20683 ft | 411 kts | 254° |
| 2026-05-05 12:13 | 48.80331 | 2.40351 | 21269 ft | 415 kts | 258° |
| 2026-05-05 12:13 | 48.80093 | 2.35971 | 21853 ft | 419 kts | 267° |
| 2026-05-05 12:14 | 48.80087 | 2.31528 | 22403 ft | 422 kts | 269° |
| 2026-05-05 12:14 | 48.80108 | 2.27061 | 22953 ft | 425 kts | 269° |
| 2026-05-05 12:14 | 48.80124 | 2.22571 | 23490 ft | 428 kts | 268° |
| 2026-05-05 12:14 | 48.80134 | 2.18026 | 23937 ft | 432 kts | 268° |
| 2026-05-05 12:15 | 48.80140 | 2.13519 | 24397 ft | 435 kts | 268° |
| 2026-05-05 12:15 | 48.80142 | 2.08920 | 24873 ft | 438 kts | 268° |
| 2026-05-05 12:15 | 48.80141 | 2.04273 | 25361 ft | 442 kts | 268° |
| 2026-05-05 12:15 | 48.80137 | 1.99600 | 25840 ft | 445 kts | 268° |
| 2026-05-05 12:16 | 48.80131 | 1.94886 | 26310 ft | 448 kts | 268° |
| 2026-05-05 12:16 | 48.80124 | 1.90153 | 26785 ft | 451 kts | 268° |
| 2026-05-05 12:16 | 48.80114 | 1.85384 | 27225 ft | 453 kts | 268° |
| 2026-05-05 12:16 | 48.80103 | 1.80597 | 27651 ft | 456 kts | 268° |
| 2026-05-05 12:17 | 48.80090 | 1.75768 | 28075 ft | 459 kts | 268° |
| 2026-05-05 12:17 | 48.80074 | 1.70901 | 28500 ft | 463 kts | 268° |
| 2026-05-05 12:17 | 48.80055 | 1.66002 | 28927 ft | 466 kts | 268° |
| 2026-05-05 12:17 | 48.80035 | 1.61070 | 29350 ft | 470 kts | 268° |
| 2026-05-05 12:18 | 48.80013 | 1.56096 | 29722 ft | 474 kts | 268° |
| 2026-05-05 12:18 | 48.79988 | 1.51152 | 30062 ft | 476 kts | 268° |
| 2026-05-05 12:18 | 48.79961 | 1.46116 | 30367 ft | 479 kts | 267° |
| 2026-05-05 12:18 | 48.79932 | 1.41050 | 30677 ft | 481 kts | 267° |
| 2026-05-05 12:19 | 48.79900 | 1.35961 | 31009 ft | 483 kts | 267° |
| 2026-05-05 12:19 | 48.79865 | 1.30855 | 31327 ft | 485 kts | 267° |
| 2026-05-05 12:19 | 48.79828 | 1.25734 | 31624 ft | 487 kts | 267° |
| 2026-05-05 12:19 | 48.79789 | 1.20583 | 31926 ft | 489 kts | 267° |
| 2026-05-05 12:20 | 48.79748 | 1.15415 | 32212 ft | 491 kts | 267° |
| 2026-05-05 12:20 | 48.79704 | 1.10234 | 32493 ft | 493 kts | 267° |
| 2026-05-05 12:20 | 48.79658 | 1.05027 | 32754 ft | 494 kts | 266° |
| 2026-05-05 12:20 | 48.79608 | 0.99805 | 33016 ft | 496 kts | 266° |
| 2026-05-05 12:21 | 48.79557 | 0.94575 | 33358 ft | 496 kts | 266° |
| 2026-05-05 12:21 | 48.79504 | 0.89362 | 33765 ft | 494 kts | 266° |
| 2026-05-05 12:21 | 48.79449 | 0.84163 | 34101 ft | 492 kts | 266° |
| 2026-05-05 12:21 | 48.79391 | 0.78979 | 34395 ft | 491 kts | 266° |
| 2026-05-05 12:22 | 48.79330 | 0.73795 | 34676 ft | 491 kts | 266° |
| 2026-05-05 12:22 | 48.79269 | 0.68697 | 34956 ft | 490 kts | 266° |
| 2026-05-05 12:22 | 48.79204 | 0.63532 | 35242 ft | 490 kts | 266° |
| 2026-05-05 12:22 | 48.79136 | 0.58303 | 35517 ft | 489 kts | 266° |
| 2026-05-05 12:23 | 48.79120 | 0.53202 | 35767 ft | 491 kts | 270° |
| 2026-05-05 12:23 | 48.79333 | 0.48042 | 36040 ft | 491 kts | 272° |
| 2026-05-05 12:23 | 48.79638 | 0.42809 | 36301 ft | 491 kts | 274° |
| 2026-05-05 12:23 | 48.79976 | 0.37658 | 36564 ft | 491 kts | 274° |
| 2026-05-05 12:24 | 48.80322 | 0.32517 | 36798 ft | 490 kts | 274° |
| 2026-05-05 12:24 | 48.80664 | 0.27384 | 37013 ft | 490 kts | 274° |
| 2026-05-05 12:24 | 48.80997 | 0.22244 | 37213 ft | 489 kts | 274° |
| 2026-05-05 12:24 | 48.81320 | 0.17098 | 37413 ft | 489 kts | 274° |
| 2026-05-05 12:25 | 48.81636 | 0.11975 | 37637 ft | 489 kts | 273° |
| 2026-05-05 12:25 | 48.81943 | 0.06895 | 37835 ft | 489 kts | 273° |
| 2026-05-05 12:25 | 48.82562 | -0.03518 | 37893 ft | 495 kts | 273° |
| 2026-05-05 12:26 | 48.83168 | -0.13849 | 37901 ft | 494 kts | 273° |
| 2026-05-05 12:26 | 48.83774 | -0.24310 | 37910 ft | 494 kts | 273° |
| 2026-05-05 12:27 | 48.84358 | -0.34705 | 37912 ft | 494 kts | 272° |
| 2026-05-05 12:27 | 48.84907 | -0.45168 | 37914 ft | 494 kts | 272° |
| 2026-05-05 12:28 | 48.85449 | -0.55637 | 37919 ft | 494 kts | 272° |
| 2026-05-05 12:28 | 48.85982 | -0.66039 | 37918 ft | 494 kts | 272° |
| 2026-05-05 12:29 | 48.86508 | -0.76443 | 37923 ft | 494 kts | 272° |
| 2026-05-05 12:29 | 48.87023 | -0.86789 | 37921 ft | 494 kts | 272° |
| 2026-05-05 12:30 | 48.87449 | -0.95507 | 37925 ft | 494 kts | 272° |
| 2026-05-05 12:30 | 48.87947 | -1.05918 | 37928 ft | 494 kts | 272° |
| 2026-05-05 12:31 | 48.88515 | -1.18019 | 37931 ft | 494 kts | 272° |
| 2026-05-05 12:31 | 48.88995 | -1.28445 | 37931 ft | 494 kts | 272° |
| 2026-05-05 12:32 | 48.89391 | -1.37173 | 37933 ft | 494 kts | 272° |
| 2026-05-05 12:32 | 48.89855 | -1.47608 | 37935 ft | 495 kts | 272° |
| 2026-05-05 12:33 | 48.90305 | -1.57955 | 37936 ft | 495 kts | 272° |
| 2026-05-05 12:33 | 48.90752 | -1.68392 | 37937 ft | 494 kts | 272° |
| 2026-05-05 12:34 | 48.90382 | -1.78762 | 37946 ft | 491 kts | 257° |
| 2026-05-05 12:34 | 48.88898 | -1.88886 | 37941 ft | 491 kts | 255° |
| 2026-05-05 12:35 | 48.87237 | -1.98955 | 37944 ft | 491 kts | 254° |
| 2026-05-05 12:35 | 48.85562 | -2.09010 | 37941 ft | 492 kts | 254° |
| 2026-05-05 12:36 | 48.83896 | -2.19083 | 37943 ft | 492 kts | 255° |
| 2026-05-05 12:36 | 48.82230 | -2.29152 | 37946 ft | 492 kts | 255° |
| 2026-05-05 12:37 | 48.80558 | -2.39214 | 37947 ft | 492 kts | 255° |
| 2026-05-05 12:37 | 48.78873 | -2.49287 | 37950 ft | 492 kts | 255° |
| 2026-05-05 12:38 | 48.77182 | -2.59349 | 37949 ft | 492 kts | 255° |
| 2026-05-05 12:38 | 48.75486 | -2.69398 | 37947 ft | 493 kts | 255° |
| 2026-05-05 12:39 | 48.73772 | -2.79459 | 37954 ft | 493 kts | 255° |
| 2026-05-05 12:39 | 48.72063 | -2.89442 | 37944 ft | 493 kts | 255° |
| 2026-05-05 12:40 | 48.70383 | -2.99508 | 37949 ft | 494 kts | 257° |
| 2026-05-05 12:40 | 48.69176 | -3.09746 | 37955 ft | 494 kts | 260° |
| 2026-05-05 12:41 | 48.68086 | -3.20012 | 37967 ft | 494 kts | 260° |
| 2026-05-05 12:41 | 48.66916 | -3.30266 | 37966 ft | 494 kts | 259° |
| 2026-05-05 12:42 | 48.65687 | -3.40501 | 37966 ft | 495 kts | 259° |
| 2026-05-05 12:42 | 48.64433 | -3.50738 | 37966 ft | 495 kts | 259° |
| 2026-05-05 12:43 | 48.63174 | -3.60957 | 37969 ft | 495 kts | 259° |
| 2026-05-05 12:43 | 48.61908 | -3.71191 | 37965 ft | 495 kts | 259° |
| 2026-05-05 12:44 | 48.60642 | -3.81348 | 37965 ft | 495 kts | 259° |
| 2026-05-05 12:44 | 48.59359 | -3.91558 | 37968 ft | 495 kts | 259° |
| 2026-05-05 12:45 | 48.58065 | -4.01788 | 37969 ft | 495 kts | 259° |
| 2026-05-05 12:45 | 48.56764 | -4.11991 | 37978 ft | 495 kts | 259° |
| 2026-05-05 12:46 | 48.55453 | -4.22195 | 37955 ft | 494 kts | 259° |
| 2026-05-05 12:46 | 48.54135 | -4.32373 | 37970 ft | 495 kts | 259° |
| 2026-05-05 12:47 | 48.52805 | -4.42573 | 37969 ft | 495 kts | 259° |
| 2026-05-05 12:47 | 48.51470 | -4.52742 | 37966 ft | 495 kts | 259° |
| 2026-05-05 12:48 | 48.50122 | -4.62933 | 37966 ft | 495 kts | 259° |
| 2026-05-05 12:48 | 48.48767 | -4.73109 | 37971 ft | 495 kts | 259° |
| 2026-05-05 12:49 | 48.47402 | -4.83282 | 37977 ft | 495 kts | 259° |
| 2026-05-05 12:49 | 48.46029 | -4.93445 | 37990 ft | 495 kts | 259° |
| 2026-05-05 12:50 | 48.44656 | -5.03536 | 37990 ft | 495 kts | 259° |
| 2026-05-05 12:50 | 48.43266 | -5.13687 | 37996 ft | 495 kts | 259° |
| 2026-05-05 12:51 | 48.41866 | -5.23835 | 37989 ft | 495 kts | 259° |
| 2026-05-05 12:51 | 48.40457 | -5.33976 | 37999 ft | 495 kts | 259° |
| 2026-05-05 12:52 | 48.39030 | -5.44181 | 37997 ft | 495 kts | 259° |
| 2026-05-05 12:52 | 48.37611 | -5.54254 | 38000 ft | 495 kts | 259° |
| 2026-05-05 12:53 | 48.36166 | -5.64443 | 38004 ft | 496 kts | 259° |
| 2026-05-05 12:53 | 48.34727 | -5.74517 | 38010 ft | 496 kts | 259° |
| 2026-05-05 12:54 | 48.32541 | -5.89708 | 38006 ft | 496 kts | 258° |
| 2026-05-05 12:55 | 48.31072 | -5.99828 | 38013 ft | 496 kts | 258° |
| 2026-05-05 12:55 | 48.29594 | -6.09940 | 38016 ft | 496 kts | 259° |
| 2026-05-05 12:56 | 48.28106 | -6.20062 | 38016 ft | 496 kts | 258° |
| 2026-05-05 12:56 | 48.26610 | -6.30174 | 38015 ft | 496 kts | 258° |
| 2026-05-05 12:57 | 48.25105 | -6.40281 | 38017 ft | 496 kts | 258° |
| 2026-05-05 12:57 | 48.23591 | -6.50378 | 38026 ft | 496 kts | 258° |
| 2026-05-05 12:58 | 48.22065 | -6.60480 | 38029 ft | 496 kts | 258° |
| 2026-05-05 12:58 | 48.20544 | -6.70492 | 38030 ft | 496 kts | 258° |
| 2026-05-05 12:59 | 48.19002 | -6.80576 | 38034 ft | 496 kts | 258° |
| 2026-05-05 12:59 | 48.17453 | -6.90653 | 38038 ft | 496 kts | 258° |
| 2026-05-05 13:00 | 48.15113 | -7.05737 | 38035 ft | 495 kts | 258° |
| 2026-05-05 13:01 | 48.11969 | -7.25797 | 38041 ft | 495 kts | 258° |
| 2026-05-05 13:01 | 48.10385 | -7.35816 | 38046 ft | 495 kts | 258° |
| 2026-05-05 13:02 | 48.08792 | -7.45825 | 38050 ft | 495 kts | 258° |
| 2026-05-05 13:02 | 48.07200 | -7.55765 | 38052 ft | 495 kts | 258° |
| 2026-05-05 13:03 | 48.05591 | -7.65763 | 38053 ft | 494 kts | 258° |
| 2026-05-05 13:03 | 48.03973 | -7.75748 | 38060 ft | 494 kts | 258° |
| 2026-05-05 13:04 | 48.02348 | -7.85714 | 38061 ft | 494 kts | 258° |
| 2026-05-05 13:04 | 48.00725 | -7.95670 | 38057 ft | 493 kts | 259° |
| 2026-05-05 13:05 | 48.00033 | -8.05789 | 38066 ft | 489 kts | 271° |
| 2026-05-05 13:05 | 47.99988 | -8.15930 | 38068 ft | 488 kts | 272° |
| 2026-05-05 13:06 | 48.00032 | -8.26059 | 38073 ft | 488 kts | 272° |
| 2026-05-05 13:06 | 48.00062 | -8.36185 | 38070 ft | 488 kts | 272° |
| 2026-05-05 13:07 | 48.00065 | -8.46295 | 38073 ft | 487 kts | 272° |
| 2026-05-05 13:07 | 48.00052 | -8.56416 | 38083 ft | 487 kts | 272° |
| 2026-05-05 13:08 | 48.00030 | -8.66445 | 38081 ft | 486 kts | 272° |
| 2026-05-05 13:08 | 47.99703 | -8.76610 | 38088 ft | 489 kts | 263° |
| 2026-05-05 13:09 | 47.98528 | -8.86611 | 38089 ft | 490 kts | 261° |
| 2026-05-05 13:09 | 47.97215 | -8.96510 | 38090 ft | 490 kts | 261° |
| 2026-05-05 13:10 | 47.95869 | -9.06473 | 38092 ft | 490 kts | 261° |
| 2026-05-05 13:10 | 47.94530 | -9.16423 | 38096 ft | 489 kts | 261° |
| 2026-05-05 13:11 | 47.93192 | -9.26369 | 38095 ft | 489 kts | 261° |
| 2026-05-05 13:11 | 47.91845 | -9.36320 | 38099 ft | 489 kts | 261° |
| 2026-05-05 13:12 | 47.90491 | -9.46258 | 38102 ft | 489 kts | 261° |
| 2026-05-05 13:12 | 47.89130 | -9.56172 | 38104 ft | 489 kts | 261° |
| 2026-05-05 13:13 | 47.87758 | -9.66098 | 38107 ft | 489 kts | 261° |
| 2026-05-05 13:13 | 47.86381 | -9.76001 | 38109 ft | 488 kts | 261° |
| 2026-05-05 13:14 | 47.84994 | -9.85896 | 38110 ft | 488 kts | 261° |
| 2026-05-05 13:14 | 47.83611 | -9.95707 | 38114 ft | 488 kts | 261° |
| 2026-05-05 13:15 | 47.82210 | -10.05578 | 38117 ft | 488 kts | 260° |
| 2026-05-05 13:15 | 47.80800 | -10.15446 | 38120 ft | 487 kts | 260° |
| 2026-05-05 13:16 | 47.79385 | -10.25291 | 38122 ft | 487 kts | 260° |
| 2026-05-05 13:16 | 47.77958 | -10.35146 | 38123 ft | 487 kts | 260° |
| 2026-05-05 13:17 | 47.76527 | -10.44974 | 38140 ft | 487 kts | 260° |
| 2026-05-05 13:17 | 47.75085 | -10.54805 | 38138 ft | 487 kts | 260° |
| 2026-05-05 13:18 | 47.73637 | -10.64620 | 38139 ft | 486 kts | 260° |
| 2026-05-05 13:18 | 47.72190 | -10.74370 | 38131 ft | 486 kts | 260° |
| 2026-05-05 13:19 | 47.70724 | -10.84176 | 38143 ft | 486 kts | 259° |
| 2026-05-05 13:19 | 47.69252 | -10.93965 | 38141 ft | 486 kts | 259° |
| 2026-05-05 13:20 | 47.67772 | -11.03753 | 38143 ft | 486 kts | 259° |
| 2026-05-05 13:20 | 47.66282 | -11.13542 | 38138 ft | 486 kts | 259° |
| 2026-05-05 13:21 | 47.64785 | -11.23314 | 38141 ft | 486 kts | 259° |
| 2026-05-05 13:21 | 47.63279 | -11.33084 | 38149 ft | 486 kts | 259° |
| 2026-05-05 13:22 | 47.61767 | -11.42836 | 38150 ft | 486 kts | 259° |
| 2026-05-05 13:22 | 47.60255 | -11.52529 | 38157 ft | 486 kts | 259° |
| 2026-05-05 13:23 | 47.58727 | -11.62270 | 38158 ft | 486 kts | 259° |
| 2026-05-05 13:23 | 47.57190 | -11.72003 | 38156 ft | 485 kts | 259° |
| 2026-05-05 13:24 | 47.55645 | -11.81734 | 38165 ft | 485 kts | 259° |
| 2026-05-05 13:24 | 47.54093 | -11.91451 | 38164 ft | 485 kts | 259° |
| 2026-05-05 13:25 | 47.52535 | -12.01148 | 38166 ft | 485 kts | 258° |
| 2026-05-05 13:25 | 47.50966 | -12.10856 | 38164 ft | 485 kts | 258° |
| 2026-05-05 13:26 | 47.49391 | -12.20545 | 38171 ft | 484 kts | 258° |
| 2026-05-05 13:26 | 47.47818 | -12.30168 | 38173 ft | 484 kts | 258° |
| 2026-05-05 13:27 | 47.46229 | -12.39835 | 38177 ft | 484 kts | 258° |
| 2026-05-05 13:27 | 47.44631 | -12.49494 | 38181 ft | 484 kts | 258° |
| 2026-05-05 13:28 | 47.43027 | -12.59143 | 38181 ft | 484 kts | 258° |
| 2026-05-05 13:28 | 47.41415 | -12.68783 | 38180 ft | 484 kts | 258° |
| 2026-05-05 13:29 | 47.40070 | -12.76785 | 38185 ft | 484 kts | 258° |
| 2026-05-05 13:29 | 47.38442 | -12.86419 | 38185 ft | 483 kts | 258° |
| 2026-05-05 13:30 | 47.36807 | -12.96040 | 38184 ft | 483 kts | 258° |
| 2026-05-05 13:30 | 47.35166 | -13.05646 | 38193 ft | 483 kts | 258° |
| 2026-05-05 13:31 | 47.33516 | -13.15251 | 38189 ft | 483 kts | 258° |
| 2026-05-05 13:31 | 47.31860 | -13.24840 | 38194 ft | 483 kts | 258° |
| 2026-05-05 13:32 | 47.30194 | -13.34433 | 38195 ft | 483 kts | 258° |
| 2026-05-05 13:32 | 47.28523 | -13.44003 | 38204 ft | 483 kts | 257° |
| 2026-05-05 13:33 | 47.26855 | -13.53505 | 38203 ft | 482 kts | 257° |
| 2026-05-05 13:33 | 47.25167 | -13.63067 | 38206 ft | 482 kts | 257° |
| 2026-05-05 13:34 | 47.23473 | -13.72614 | 38200 ft | 482 kts | 257° |
| 2026-05-05 13:34 | 47.21771 | -13.82154 | 38202 ft | 482 kts | 257° |
| 2026-05-05 13:35 | 47.20062 | -13.91684 | 38203 ft | 482 kts | 257° |
| 2026-05-05 13:35 | 47.18345 | -14.01207 | 38205 ft | 482 kts | 257° |
| 2026-05-05 13:36 | 47.16622 | -14.10714 | 38212 ft | 482 kts | 257° |
| 2026-05-05 13:36 | 47.14902 | -14.20159 | 38218 ft | 482 kts | 257° |
| 2026-05-05 13:37 | 47.13163 | -14.29652 | 38217 ft | 481 kts | 257° |
| 2026-05-05 13:37 | 47.11417 | -14.39143 | 38220 ft | 481 kts | 257° |
| 2026-05-05 13:38 | 47.09664 | -14.48618 | 38222 ft | 481 kts | 257° |
| 2026-05-05 13:38 | 47.07901 | -14.58100 | 38230 ft | 481 kts | 257° |
| 2026-05-05 13:39 | 47.06131 | -14.67569 | 38225 ft | 481 kts | 257° |
| 2026-05-05 13:39 | 47.04355 | -14.77026 | 38232 ft | 481 kts | 257° |
| 2026-05-05 13:40 | 47.02570 | -14.86478 | 38230 ft | 481 kts | 257° |
| 2026-05-05 13:40 | 47.00776 | -14.95931 | 38236 ft | 481 kts | 257° |
| 2026-05-05 13:41 | 46.99003 | -15.05376 | 38237 ft | 481 kts | 257° |
| 2026-05-05 13:41 | 46.97349 | -15.14850 | 38239 ft | 480 kts | 258° |
| 2026-05-05 13:42 | 46.95705 | -15.24339 | 38239 ft | 480 kts | 258° |
| 2026-05-05 13:42 | 46.94049 | -15.33738 | 38239 ft | 480 kts | 258° |
| 2026-05-05 13:43 | 46.92361 | -15.43193 | 38244 ft | 480 kts | 257° |
| 2026-05-05 13:43 | 46.90665 | -15.52632 | 38253 ft | 480 kts | 257° |
| 2026-05-05 13:44 | 46.88960 | -15.62071 | 38252 ft | 480 kts | 257° |
| 2026-05-05 13:44 | 46.87251 | -15.71496 | 38253 ft | 480 kts | 257° |
| 2026-05-05 13:45 | 46.85534 | -15.80910 | 38259 ft | 479 kts | 257° |
| 2026-05-05 13:45 | 46.83811 | -15.90312 | 38256 ft | 479 kts | 257° |
| 2026-05-05 13:46 | 46.82092 | -15.99644 | 38261 ft | 479 kts | 257° |
| 2026-05-05 13:46 | 46.80342 | -16.09090 | 38263 ft | 479 kts | 257° |
| 2026-05-05 13:47 | 46.78608 | -16.18410 | 38263 ft | 479 kts | 257° |
| 2026-05-05 13:47 | 46.76857 | -16.27773 | 38265 ft | 479 kts | 257° |
| 2026-05-05 13:48 | 46.75096 | -16.37139 | 38267 ft | 478 kts | 257° |
| 2026-05-05 13:48 | 46.73330 | -16.46485 | 38275 ft | 478 kts | 257° |
| 2026-05-05 13:49 | 46.71557 | -16.55828 | 38276 ft | 478 kts | 257° |
| 2026-05-05 13:49 | 46.69776 | -16.65160 | 38279 ft | 478 kts | 257° |
| 2026-05-05 13:50 | 46.67990 | -16.74479 | 38277 ft | 478 kts | 257° |
| 2026-05-05 13:50 | 46.66197 | -16.83785 | 38284 ft | 477 kts | 257° |
| 2026-05-05 13:51 | 46.64409 | -16.93019 | 38289 ft | 477 kts | 257° |
| 2026-05-05 13:51 | 46.62602 | -17.02309 | 38284 ft | 477 kts | 257° |
| 2026-05-05 13:52 | 46.60790 | -17.11578 | 38287 ft | 477 kts | 257° |
| 2026-05-05 13:52 | 46.58970 | -17.20844 | 38291 ft | 476 kts | 257° |
| 2026-05-05 13:53 | 46.57142 | -17.30103 | 38291 ft | 476 kts | 257° |
| 2026-05-05 13:53 | 46.55311 | -17.39337 | 38291 ft | 476 kts | 256° |
| 2026-05-05 13:54 | 46.53471 | -17.48572 | 38299 ft | 476 kts | 256° |
| 2026-05-05 13:54 | 46.51638 | -17.57730 | 38304 ft | 476 kts | 256° |
| 2026-05-05 13:55 | 46.49786 | -17.66940 | 38300 ft | 475 kts | 256° |
| 2026-05-05 13:55 | 46.47925 | -17.76147 | 38307 ft | 475 kts | 256° |
| 2026-05-05 13:56 | 46.46061 | -17.85331 | 38306 ft | 475 kts | 256° |
| 2026-05-05 13:56 | 46.44188 | -17.94516 | 38310 ft | 475 kts | 256° |
| 2026-05-05 13:57 | 46.42310 | -18.03683 | 38312 ft | 474 kts | 256° |
| 2026-05-05 13:57 | 46.40424 | -18.12845 | 38317 ft | 474 kts | 256° |
| 2026-05-05 13:58 | 46.38532 | -18.21994 | 38315 ft | 474 kts | 256° |
| 2026-05-05 13:58 | 46.36634 | -18.31135 | 38318 ft | 474 kts | 256° |
| 2026-05-05 13:59 | 46.33774 | -18.44833 | 38317 ft | 474 kts | 256° |
| 2026-05-05 14:00 | 46.31223 | -18.56968 | 38320 ft | 474 kts | 256° |
| 2026-05-05 14:00 | 46.28986 | -18.67554 | 38326 ft | 474 kts | 256° |
| 2026-05-05 14:01 | 46.27052 | -18.76661 | 38324 ft | 474 kts | 256° |
| 2026-05-05 14:01 | 46.25109 | -18.85765 | 38339 ft | 474 kts | 256° |
| 2026-05-05 14:02 | 46.23161 | -18.94854 | 38321 ft | 474 kts | 256° |
| 2026-05-05 14:02 | 46.21202 | -19.03955 | 38329 ft | 474 kts | 256° |
| 2026-05-05 14:03 | 46.19239 | -19.13039 | 38328 ft | 474 kts | 256° |
| 2026-05-05 14:03 | 46.17265 | -19.22129 | 38328 ft | 475 kts | 256° |
| 2026-05-05 14:04 | 46.15297 | -19.31151 | 38333 ft | 475 kts | 256° |
| 2026-05-05 14:04 | 46.13309 | -19.40230 | 38330 ft | 475 kts | 256° |
| 2026-05-05 14:05 | 46.11313 | -19.49300 | 38339 ft | 475 kts | 256° |
| 2026-05-05 14:05 | 46.09310 | -19.58368 | 38342 ft | 475 kts | 256° |
| 2026-05-05 14:06 | 46.07301 | -19.67420 | 38344 ft | 475 kts | 256° |
| 2026-05-05 14:06 | 46.05283 | -19.76478 | 38341 ft | 475 kts | 256° |
| 2026-05-05 14:07 | 46.03259 | -19.85519 | 38345 ft | 475 kts | 256° |
| 2026-05-05 14:07 | 46.01229 | -19.94546 | 38340 ft | 475 kts | 257° |
| 2026-05-05 14:08 | 45.98343 | -20.03170 | 38347 ft | 484 kts | 241° |
| 2026-05-05 14:08 | 45.94516 | -20.11092 | 38345 ft | 487 kts | 239° |
| 2026-05-05 14:09 | 45.90508 | -20.18946 | 38345 ft | 488 kts | 238° |
| 2026-05-05 14:09 | 45.86486 | -20.26800 | 38339 ft | 488 kts | 239° |
| 2026-05-05 14:10 | 45.82481 | -20.34659 | 38346 ft | 488 kts | 239° |
| 2026-05-05 14:10 | 45.78479 | -20.42521 | 38356 ft | 488 kts | 239° |
| 2026-05-05 14:11 | 45.74471 | -20.50377 | 38350 ft | 489 kts | 239° |
| 2026-05-05 14:11 | 45.70450 | -20.58235 | 38367 ft | 489 kts | 239° |
| 2026-05-05 14:12 | 45.66426 | -20.66072 | 38364 ft | 489 kts | 239° |
| 2026-05-05 14:12 | 45.62387 | -20.73919 | 38356 ft | 490 kts | 239° |
| 2026-05-05 14:13 | 45.58344 | -20.81752 | 38355 ft | 490 kts | 240° |
| 2026-05-05 14:13 | 45.54291 | -20.89581 | 38356 ft | 490 kts | 240° |
| 2026-05-05 14:14 | 45.50233 | -20.97399 | 38357 ft | 491 kts | 240° |
| 2026-05-05 14:14 | 45.46163 | -21.05218 | 38355 ft | 491 kts | 240° |
| 2026-05-05 14:15 | 45.42117 | -21.12970 | 38361 ft | 492 kts | 240° |
| 2026-05-05 14:15 | 45.38031 | -21.20778 | 38359 ft | 492 kts | 240° |
| 2026-05-05 14:16 | 45.33938 | -21.28579 | 38359 ft | 492 kts | 240° |
| 2026-05-05 14:16 | 45.29839 | -21.36367 | 38357 ft | 492 kts | 240° |
| 2026-05-05 14:17 | 45.25737 | -21.44141 | 38361 ft | 492 kts | 240° |
| 2026-05-05 14:17 | 45.21625 | -21.51915 | 38363 ft | 492 kts | 240° |
| 2026-05-05 14:18 | 45.17535 | -21.59624 | 38361 ft | 492 kts | 240° |
| 2026-05-05 14:18 | 45.13411 | -21.67376 | 38359 ft | 492 kts | 240° |
| 2026-05-05 14:19 | 45.09286 | -21.75110 | 38362 ft | 492 kts | 240° |
| 2026-05-05 14:19 | 45.05157 | -21.82829 | 38360 ft | 492 kts | 240° |
| 2026-05-05 14:20 | 45.01022 | -21.90540 | 38362 ft | 492 kts | 240° |
| 2026-05-05 14:20 | 44.96887 | -21.98229 | 38362 ft | 491 kts | 240° |
| 2026-05-05 14:21 | 44.92751 | -22.05899 | 38362 ft | 491 kts | 240° |
| 2026-05-05 14:21 | 44.88616 | -22.13548 | 38369 ft | 491 kts | 240° |
| 2026-05-05 14:22 | 44.84496 | -22.21148 | 38370 ft | 490 kts | 240° |
| 2026-05-05 14:22 | 44.80353 | -22.28772 | 38364 ft | 490 kts | 240° |
| 2026-05-05 14:23 | 44.76205 | -22.36382 | 38370 ft | 490 kts | 240° |
| 2026-05-05 14:23 | 44.72054 | -22.43979 | 38365 ft | 490 kts | 240° |
| 2026-05-05 14:24 | 44.67900 | -22.51561 | 38364 ft | 489 kts | 240° |
| 2026-05-05 14:24 | 44.63746 | -22.59125 | 38365 ft | 489 kts | 240° |
| 2026-05-05 14:25 | 44.59587 | -22.66675 | 38368 ft | 489 kts | 240° |
| 2026-05-05 14:25 | 44.55428 | -22.74207 | 38371 ft | 488 kts | 239° |
| 2026-05-05 14:26 | 44.51269 | -22.81719 | 38372 ft | 488 kts | 239° |
| 2026-05-05 14:26 | 44.47132 | -22.89172 | 38370 ft | 488 kts | 239° |
| 2026-05-05 14:27 | 44.42935 | -22.96713 | 38376 ft | 488 kts | 239° |
| 2026-05-05 14:27 | 44.38763 | -23.04189 | 38376 ft | 487 kts | 239° |
| 2026-05-05 14:28 | 44.34585 | -23.11656 | 38375 ft | 487 kts | 239° |
| 2026-05-05 14:28 | 44.30407 | -23.19105 | 38375 ft | 487 kts | 239° |
| 2026-05-05 14:29 | 44.26256 | -23.26487 | 38377 ft | 487 kts | 239° |
| 2026-05-05 14:29 | 44.22071 | -23.33911 | 38375 ft | 487 kts | 238° |
| 2026-05-05 14:30 | 44.17879 | -23.41325 | 38379 ft | 487 kts | 238° |
| 2026-05-05 14:30 | 44.13687 | -23.48723 | 38374 ft | 487 kts | 238° |
| 2026-05-05 14:31 | 44.10166 | -23.54922 | 38370 ft | 487 kts | 238° |
| 2026-05-05 14:31 | 44.05991 | -23.62254 | 38379 ft | 487 kts | 238° |
| 2026-05-05 14:32 | 44.01787 | -23.69619 | 38383 ft | 487 kts | 238° |
| 2026-05-05 14:32 | 43.97572 | -23.76985 | 38376 ft | 487 kts | 238° |
| 2026-05-05 14:33 | 43.93356 | -23.84333 | 38376 ft | 486 kts | 238° |
| 2026-05-05 14:33 | 43.89135 | -23.91671 | 38378 ft | 486 kts | 238° |
| 2026-05-05 14:34 | 43.84912 | -23.98994 | 38384 ft | 486 kts | 238° |
| 2026-05-05 14:34 | 43.80688 | -24.06302 | 38386 ft | 486 kts | 238° |
| 2026-05-05 14:35 | 43.76459 | -24.13598 | 38387 ft | 486 kts | 238° |
| 2026-05-05 14:35 | 43.72253 | -24.20837 | 38387 ft | 486 kts | 238° |
| 2026-05-05 14:36 | 43.68021 | -24.28103 | 38393 ft | 485 kts | 238° |
| 2026-05-05 14:36 | 43.63788 | -24.35353 | 38390 ft | 485 kts | 238° |
| 2026-05-05 14:37 | 43.59545 | -24.42602 | 38390 ft | 485 kts | 238° |
| 2026-05-05 14:37 | 43.55300 | -24.49836 | 38393 ft | 485 kts | 238° |
| 2026-05-05 14:38 | 43.51050 | -24.57061 | 38396 ft | 485 kts | 238° |
| 2026-05-05 14:38 | 43.46794 | -24.64278 | 38394 ft | 486 kts | 238° |
| 2026-05-05 14:39 | 43.42560 | -24.71440 | 38394 ft | 486 kts | 238° |
| 2026-05-05 14:39 | 43.38288 | -24.78648 | 38394 ft | 486 kts | 238° |
| 2026-05-05 14:40 | 43.34009 | -24.85852 | 38397 ft | 487 kts | 238° |
| 2026-05-05 14:40 | 43.29725 | -24.93045 | 38398 ft | 487 kts | 238° |
| 2026-05-05 14:41 | 43.25427 | -25.00243 | 38400 ft | 487 kts | 239° |
| 2026-05-05 14:41 | 43.21127 | -25.07428 | 38400 ft | 488 kts | 239° |
| 2026-05-05 14:42 | 43.16817 | -25.14613 | 38402 ft | 488 kts | 239° |
| 2026-05-05 14:42 | 43.12496 | -25.21796 | 38398 ft | 489 kts | 239° |
| 2026-05-05 14:43 | 43.08163 | -25.28984 | 38390 ft | 490 kts | 239° |
| 2026-05-05 14:43 | 43.03849 | -25.36122 | 38405 ft | 491 kts | 239° |
| 2026-05-05 14:44 | 42.99490 | -25.43316 | 38405 ft | 491 kts | 240° |
| 2026-05-05 14:44 | 42.95126 | -25.50502 | 38406 ft | 492 kts | 240° |
| 2026-05-05 14:45 | 42.90747 | -25.57694 | 38411 ft | 493 kts | 240° |
| 2026-05-05 14:45 | 42.86360 | -25.64882 | 38413 ft | 494 kts | 240° |
| 2026-05-05 14:46 | 42.81960 | -25.72073 | 38413 ft | 494 kts | 240° |
| 2026-05-05 14:46 | 42.77554 | -25.79256 | 38411 ft | 495 kts | 240° |
| 2026-05-05 14:47 | 42.73166 | -25.86393 | 38418 ft | 495 kts | 240° |
| 2026-05-05 14:47 | 42.68744 | -25.93568 | 38413 ft | 495 kts | 240° |
| 2026-05-05 14:48 | 42.64314 | -26.00737 | 38412 ft | 496 kts | 240° |
| 2026-05-05 14:48 | 42.59875 | -26.07905 | 38407 ft | 496 kts | 240° |
| 2026-05-05 14:49 | 42.55427 | -26.15068 | 38419 ft | 496 kts | 240° |
| 2026-05-05 14:49 | 42.50971 | -26.22228 | 38410 ft | 497 kts | 240° |
| 2026-05-05 14:50 | 42.46509 | -26.29381 | 38409 ft | 497 kts | 240° |
| 2026-05-05 14:50 | 42.42041 | -26.36523 | 38407 ft | 497 kts | 240° |
| 2026-05-05 14:51 | 42.37563 | -26.43667 | 38417 ft | 498 kts | 240° |
| 2026-05-05 14:51 | 42.33083 | -26.50795 | 38421 ft | 498 kts | 240° |
| 2026-05-05 14:52 | 42.28626 | -26.57870 | 38423 ft | 498 kts | 240° |
| 2026-05-05 14:52 | 42.24127 | -26.64993 | 38422 ft | 498 kts | 240° |
| 2026-05-05 14:53 | 42.19626 | -26.72103 | 38422 ft | 498 kts | 240° |
| 2026-05-05 14:53 | 42.15124 | -26.79199 | 38424 ft | 498 kts | 240° |
| 2026-05-05 14:54 | 42.10611 | -26.86295 | 38423 ft | 499 kts | 240° |
| 2026-05-05 14:54 | 42.06090 | -26.93387 | 38422 ft | 499 kts | 240° |
| 2026-05-05 14:55 | 42.01558 | -27.00479 | 38430 ft | 500 kts | 239° |
| 2026-05-05 14:55 | 41.97019 | -27.07566 | 38424 ft | 500 kts | 239° |
| 2026-05-05 14:56 | 41.92473 | -27.14645 | 38426 ft | 500 kts | 239° |
| 2026-05-05 14:56 | 41.87924 | -27.21712 | 38426 ft | 500 kts | 239° |
| 2026-05-05 14:57 | 41.83399 | -27.28723 | 38426 ft | 500 kts | 239° |
| 2026-05-05 14:57 | 41.78842 | -27.35771 | 38424 ft | 501 kts | 239° |
| 2026-05-05 14:58 | 41.74276 | -27.42814 | 38426 ft | 500 kts | 239° |
| 2026-05-05 14:58 | 41.69709 | -27.49842 | 38427 ft | 501 kts | 239° |
| 2026-05-05 14:59 | 41.65135 | -27.56865 | 38426 ft | 501 kts | 239° |
| 2026-05-05 14:59 | 41.60555 | -27.63880 | 38422 ft | 500 kts | 238° |
| 2026-05-05 15:00 | 41.56749 | -27.69698 | 38427 ft | 500 kts | 238° |
| 2026-05-05 15:00 | 41.51393 | -27.77865 | 38426 ft | 500 kts | 238° |
| 2026-05-05 15:01 | 41.46808 | -27.84838 | 38423 ft | 500 kts | 238° |
| 2026-05-05 15:01 | 41.42221 | -27.91800 | 38425 ft | 500 kts | 238° |
| 2026-05-05 15:02 | 41.37623 | -27.98762 | 38430 ft | 500 kts | 238° |
| 2026-05-05 15:02 | 41.33023 | -28.05710 | 38427 ft | 500 kts | 238° |
| 2026-05-05 15:03 | 41.28415 | -28.12653 | 38425 ft | 501 kts | 238° |
| 2026-05-05 15:03 | 41.23801 | -28.19591 | 38428 ft | 501 kts | 237° |
| 2026-05-05 15:04 | 41.19178 | -28.26525 | 38437 ft | 501 kts | 237° |
| 2026-05-05 15:04 | 41.14586 | -28.33397 | 38423 ft | 501 kts | 237° |
| 2026-05-05 15:05 | 41.07640 | -28.43761 | 38429 ft | 501 kts | 237° |
| 2026-05-05 15:06 | 41.03002 | -28.50664 | 38430 ft | 502 kts | 237° |
| 2026-05-05 15:06 | 40.98357 | -28.57559 | 38426 ft | 502 kts | 237° |
| 2026-05-05 15:07 | 40.93704 | -28.64452 | 38428 ft | 502 kts | 237° |
| 2026-05-05 15:07 | 40.89048 | -28.71331 | 38429 ft | 502 kts | 237° |
| 2026-05-05 15:08 | 40.84385 | -28.78207 | 38433 ft | 502 kts | 236° |
| 2026-05-05 15:08 | 40.79751 | -28.85023 | 38431 ft | 502 kts | 236° |
| 2026-05-05 15:09 | 40.75047 | -28.91928 | 38429 ft | 502 kts | 236° |
| 2026-05-05 15:09 | 40.70398 | -28.98735 | 38433 ft | 503 kts | 236° |
| 2026-05-05 15:10 | 40.65717 | -29.05574 | 38431 ft | 503 kts | 236° |
| 2026-05-05 15:10 | 40.61034 | -29.12401 | 38429 ft | 503 kts | 236° |
| 2026-05-05 15:11 | 40.56342 | -29.19226 | 38430 ft | 503 kts | 236° |
| 2026-05-05 15:11 | 40.51648 | -29.26038 | 38434 ft | 503 kts | 236° |
| 2026-05-05 15:12 | 40.46943 | -29.32851 | 38446 ft | 503 kts | 236° |
| 2026-05-05 15:12 | 40.42229 | -29.39659 | 38438 ft | 504 kts | 235° |
| 2026-05-05 15:13 | 40.37513 | -29.46457 | 38429 ft | 504 kts | 235° |
| 2026-05-05 15:13 | 40.32788 | -29.53253 | 38433 ft | 504 kts | 235° |
| 2026-05-05 15:14 | 40.28086 | -29.60001 | 38437 ft | 505 kts | 235° |
| 2026-05-05 15:14 | 40.23346 | -29.66786 | 38430 ft | 505 kts | 235° |
| 2026-05-05 15:15 | 40.18599 | -29.73568 | 38433 ft | 505 kts | 235° |
| 2026-05-05 15:15 | 40.13847 | -29.80342 | 38434 ft | 505 kts | 235° |
| 2026-05-05 15:16 | 40.09096 | -29.87099 | 38435 ft | 505 kts | 235° |
| 2026-05-05 15:16 | 40.04336 | -29.93852 | 38435 ft | 505 kts | 234° |
| 2026-05-05 15:17 | 39.99571 | -30.00602 | 38691 ft | 505 kts | 234° |
| 2026-05-05 15:17 | 39.97279 | -30.04047 | 38983 ft | 500 kts | 238° |
| 2026-05-05 15:17 | 39.95164 | -30.07552 | 39185 ft | 497 kts | 240° |
| 2026-05-05 15:17 | 39.93060 | -30.11189 | 39389 ft | 496 kts | 240° |
| 2026-05-05 15:18 | 39.91027 | -30.14728 | 39590 ft | 494 kts | 240° |
| 2026-05-05 15:18 | 39.88956 | -30.18295 | 39800 ft | 493 kts | 240° |
| 2026-05-05 15:18 | 39.86868 | -30.21843 | 39989 ft | 493 kts | 239° |
| 2026-05-05 15:18 | 39.84768 | -30.25367 | 40156 ft | 492 kts | 239° |
| 2026-05-05 15:19 | 39.82661 | -30.28874 | 40332 ft | 492 kts | 239° |
| 2026-05-05 15:19 | 39.78420 | -30.35892 | 40425 ft | 494 kts | 239° |
| 2026-05-05 15:20 | 39.74169 | -30.42902 | 40427 ft | 494 kts | 238° |
| 2026-05-05 15:20 | 39.69908 | -30.49919 | 40425 ft | 494 kts | 238° |
| 2026-05-05 15:21 | 39.65648 | -30.56922 | 40435 ft | 495 kts | 238° |
| 2026-05-05 15:21 | 39.61379 | -30.63926 | 40429 ft | 495 kts | 238° |
| 2026-05-05 15:22 | 39.57129 | -30.70884 | 40430 ft | 495 kts | 238° |
| 2026-05-05 15:22 | 39.52844 | -30.77882 | 40433 ft | 496 kts | 238° |
| 2026-05-05 15:23 | 39.48554 | -30.84874 | 40438 ft | 496 kts | 238° |
| 2026-05-05 15:23 | 39.44262 | -30.91854 | 40443 ft | 496 kts | 238° |
| 2026-05-05 15:24 | 39.39956 | -30.98841 | 40447 ft | 496 kts | 238° |
| 2026-05-05 15:24 | 39.35645 | -31.05820 | 40447 ft | 497 kts | 238° |
| 2026-05-05 15:25 | 39.31327 | -31.12794 | 40446 ft | 497 kts | 238° |
| 2026-05-05 15:25 | 39.27004 | -31.19763 | 40440 ft | 497 kts | 238° |
| 2026-05-05 15:26 | 39.22703 | -31.26680 | 40434 ft | 497 kts | 238° |
| 2026-05-05 15:26 | 39.18371 | -31.33633 | 40428 ft | 497 kts | 238° |
| 2026-05-05 15:27 | 39.14034 | -31.40576 | 40421 ft | 497 kts | 238° |
| 2026-05-05 15:27 | 39.09695 | -31.47509 | 40418 ft | 497 kts | 238° |
| 2026-05-05 15:28 | 39.05353 | -31.54431 | 40418 ft | 497 kts | 238° |
| 2026-05-05 15:28 | 39.01011 | -31.61339 | 40419 ft | 496 kts | 238° |
| 2026-05-05 15:29 | 38.96671 | -31.68229 | 40417 ft | 496 kts | 238° |
| 2026-05-05 15:29 | 38.92328 | -31.75108 | 40417 ft | 495 kts | 238° |
| 2026-05-05 15:30 | 38.88016 | -31.81923 | 40417 ft | 495 kts | 238° |
| 2026-05-05 15:30 | 38.83674 | -31.88772 | 40413 ft | 494 kts | 238° |
| 2026-05-05 15:31 | 38.79334 | -31.95603 | 40415 ft | 494 kts | 238° |
| 2026-05-05 15:31 | 38.74996 | -32.02415 | 40411 ft | 493 kts | 238° |
| 2026-05-05 15:32 | 38.70657 | -32.09214 | 40415 ft | 493 kts | 238° |
| 2026-05-05 15:32 | 38.66319 | -32.15999 | 40414 ft | 492 kts | 238° |
| 2026-05-05 15:33 | 38.61984 | -32.22762 | 40412 ft | 491 kts | 238° |
| 2026-05-05 15:33 | 38.57679 | -32.29467 | 40415 ft | 491 kts | 238° |
| 2026-05-05 15:34 | 38.53343 | -32.36206 | 40413 ft | 490 kts | 238° |
| 2026-05-05 15:34 | 38.49007 | -32.42930 | 40411 ft | 490 kts | 238° |
| 2026-05-05 15:35 | 38.45407 | -32.48503 | 40413 ft | 490 kts | 238° |
| 2026-05-05 15:35 | 38.40342 | -32.56329 | 40416 ft | 489 kts | 238° |
| 2026-05-05 15:36 | 38.36739 | -32.61883 | 40414 ft | 489 kts | 238° |
| 2026-05-05 15:36 | 38.32403 | -32.68554 | 40427 ft | 489 kts | 238° |
| 2026-05-05 15:37 | 38.28064 | -32.75215 | 40407 ft | 488 kts | 238° |
| 2026-05-05 15:37 | 38.23726 | -32.81861 | 40416 ft | 488 kts | 237° |
| 2026-05-05 15:38 | 38.19386 | -32.88497 | 40412 ft | 488 kts | 237° |
| 2026-05-05 15:38 | 38.15071 | -32.95081 | 40416 ft | 487 kts | 237° |
| 2026-05-05 15:39 | 38.10732 | -33.01688 | 40413 ft | 487 kts | 237° |
| 2026-05-05 15:39 | 38.06393 | -33.08282 | 40411 ft | 487 kts | 237° |
| 2026-05-05 15:40 | 38.02047 | -33.14873 | 40408 ft | 486 kts | 237° |
| 2026-05-05 15:40 | 37.97706 | -33.21444 | 40413 ft | 486 kts | 237° |
| 2026-05-05 15:41 | 37.93361 | -33.28008 | 40409 ft | 486 kts | 237° |
| 2026-05-05 15:41 | 37.89011 | -33.34564 | 40409 ft | 486 kts | 237° |
| 2026-05-05 15:42 | 37.84695 | -33.41058 | 40408 ft | 485 kts | 237° |
| 2026-05-05 15:42 | 37.80347 | -33.47585 | 40408 ft | 485 kts | 237° |
| 2026-05-05 15:43 | 37.75999 | -33.54101 | 40410 ft | 485 kts | 237° |
| 2026-05-05 15:43 | 37.71650 | -33.60604 | 40407 ft | 484 kts | 237° |
| 2026-05-05 15:44 | 37.67302 | -33.67093 | 40411 ft | 484 kts | 237° |
| 2026-05-05 15:44 | 37.62953 | -33.73571 | 40409 ft | 483 kts | 237° |
| 2026-05-05 15:45 | 37.58606 | -33.80032 | 40409 ft | 483 kts | 237° |
| 2026-05-05 15:45 | 37.54255 | -33.86487 | 40402 ft | 483 kts | 237° |
| 2026-05-05 15:46 | 37.49901 | -33.92934 | 40408 ft | 483 kts | 236° |
| 2026-05-05 15:46 | 37.45575 | -33.99327 | 40407 ft | 483 kts | 236° |
| 2026-05-05 15:47 | 37.41219 | -34.05750 | 40409 ft | 482 kts | 236° |
| 2026-05-05 15:47 | 37.36862 | -34.12163 | 40405 ft | 482 kts | 236° |
| 2026-05-05 15:48 | 37.32504 | -34.18566 | 40403 ft | 482 kts | 236° |
| 2026-05-05 15:48 | 37.28144 | -34.24958 | 40402 ft | 481 kts | 236° |
| 2026-05-05 15:49 | 37.23784 | -34.31338 | 40404 ft | 481 kts | 236° |
| 2026-05-05 15:49 | 37.19422 | -34.37709 | 40405 ft | 481 kts | 236° |
| 2026-05-05 15:50 | 37.15060 | -34.44068 | 40403 ft | 481 kts | 236° |
| 2026-05-05 15:50 | 37.10694 | -34.50420 | 40402 ft | 481 kts | 236° |
| 2026-05-05 15:51 | 37.06355 | -34.56720 | 40400 ft | 481 kts | 236° |
| 2026-05-05 15:51 | 37.01984 | -34.63056 | 40401 ft | 481 kts | 236° |
| 2026-05-05 15:52 | 36.97607 | -34.69387 | 40399 ft | 480 kts | 236° |
| 2026-05-05 15:52 | 36.93235 | -34.75699 | 40398 ft | 480 kts | 236° |
| 2026-05-05 15:53 | 36.88861 | -34.82002 | 40394 ft | 480 kts | 236° |
| 2026-05-05 15:53 | 36.84479 | -34.88304 | 40397 ft | 480 kts | 236° |
| 2026-05-05 15:54 | 36.80100 | -34.94590 | 40396 ft | 480 kts | 236° |
| 2026-05-05 15:54 | 36.75714 | -35.00875 | 40396 ft | 480 kts | 236° |
| 2026-05-05 15:55 | 36.71330 | -35.07143 | 40397 ft | 480 kts | 236° |
| 2026-05-05 15:55 | 36.66939 | -35.13411 | 40394 ft | 480 kts | 236° |
| 2026-05-05 15:56 | 36.62544 | -35.19674 | 40396 ft | 480 kts | 236° |
| 2026-05-05 15:56 | 36.58176 | -35.25884 | 40392 ft | 480 kts | 236° |
| 2026-05-05 15:57 | 36.53780 | -35.32123 | 40394 ft | 480 kts | 236° |
| 2026-05-05 15:57 | 36.49379 | -35.38358 | 40391 ft | 479 kts | 235° |
| 2026-05-05 15:58 | 36.44981 | -35.44577 | 40392 ft | 479 kts | 235° |
| 2026-05-05 15:58 | 36.40579 | -35.50789 | 40388 ft | 479 kts | 235° |
| 2026-05-05 15:59 | 36.36173 | -35.56997 | 40388 ft | 479 kts | 235° |
| 2026-05-05 15:59 | 36.31763 | -35.63199 | 40390 ft | 479 kts | 235° |
| 2026-05-05 16:00 | 36.27357 | -35.69382 | 40387 ft | 479 kts | 235° |
| 2026-05-05 16:00 | 36.22944 | -35.75565 | 40381 ft | 479 kts | 235° |
| 2026-05-05 16:01 | 36.18533 | -35.81733 | 40394 ft | 479 kts | 235° |
| 2026-05-05 16:01 | 36.14115 | -35.87899 | 40385 ft | 479 kts | 235° |
| 2026-05-05 16:02 | 36.09694 | -35.94058 | 40389 ft | 479 kts | 235° |
| 2026-05-05 16:02 | 36.05298 | -36.00171 | 40400 ft | 478 kts | 235° |
| 2026-05-05 16:03 | 36.00876 | -36.06310 | 40386 ft | 479 kts | 235° |
| 2026-05-05 16:03 | 35.96445 | -36.12451 | 40389 ft | 479 kts | 234° |
| 2026-05-05 16:04 | 35.92007 | -36.18588 | 40383 ft | 479 kts | 234° |
| 2026-05-05 16:04 | 35.87563 | -36.24724 | 40388 ft | 479 kts | 234° |
| 2026-05-05 16:05 | 35.83122 | -36.30843 | 40381 ft | 480 kts | 234° |
| 2026-05-05 16:05 | 35.78662 | -36.36978 | 40384 ft | 480 kts | 234° |
| 2026-05-05 16:06 | 35.74232 | -36.43061 | 40378 ft | 481 kts | 234° |
| 2026-05-05 16:06 | 35.69763 | -36.49186 | 40382 ft | 481 kts | 234° |
| 2026-05-05 16:07 | 35.65290 | -36.55305 | 40374 ft | 481 kts | 234° |
| 2026-05-05 16:07 | 35.60815 | -36.61416 | 40378 ft | 481 kts | 234° |
| 2026-05-05 16:08 | 35.56328 | -36.67533 | 40372 ft | 482 kts | 234° |
| 2026-05-05 16:08 | 35.51839 | -36.73641 | 40380 ft | 482 kts | 234° |
| 2026-05-05 16:09 | 35.47343 | -36.79747 | 40371 ft | 482 kts | 234° |
| 2026-05-05 16:09 | 35.42846 | -36.85843 | 40380 ft | 482 kts | 234° |
| 2026-05-05 16:10 | 35.38342 | -36.91939 | 40371 ft | 482 kts | 234° |
| 2026-05-05 16:10 | 35.33867 | -36.97984 | 40374 ft | 482 kts | 234° |
| 2026-05-05 16:11 | 35.29354 | -37.04069 | 40369 ft | 483 kts | 234° |
| 2026-05-05 16:12 | 35.20320 | -37.16218 | 40366 ft | 483 kts | 234° |
| 2026-05-05 16:13 | 35.09000 | -37.31382 | 40365 ft | 483 kts | 233° |
| 2026-05-05 16:13 | 35.04464 | -37.37439 | 40363 ft | 483 kts | 233° |
| 2026-05-05 16:14 | 34.95408 | -37.49500 | 40358 ft | 484 kts | 233° |
| 2026-05-05 16:15 | 34.86300 | -37.61586 | 40357 ft | 484 kts | 233° |
| 2026-05-05 16:16 | 34.77175 | -37.73654 | 40361 ft | 485 kts | 233° |
| 2026-05-05 16:17 | 34.70318 | -37.82693 | 40364 ft | 485 kts | 233° |
| 2026-05-05 16:18 | 34.63452 | -37.91721 | 40352 ft | 485 kts | 233° |
| 2026-05-05 16:19 | 34.56579 | -38.00735 | 40352 ft | 485 kts | 233° |
| 2026-05-05 16:19 | 34.49727 | -38.09697 | 40351 ft | 485 kts | 233° |
| 2026-05-05 16:20 | 34.40540 | -38.21677 | 40353 ft | 485 kts | 233° |
| 2026-05-05 16:22 | 34.29038 | -38.36619 | 40345 ft | 485 kts | 233° |
| 2026-05-05 16:23 | 34.19823 | -38.48542 | 40347 ft | 485 kts | 233° |
| 2026-05-05 16:23 | 34.12934 | -38.57430 | 40345 ft | 485 kts | 233° |
| 2026-05-05 16:24 | 34.08317 | -38.63374 | 40346 ft | 485 kts | 233° |
| 2026-05-05 16:25 | 34.01424 | -38.72227 | 40344 ft | 478 kts | 232° |
| 2026-05-05 16:25 | 33.94614 | -38.80952 | 40340 ft | 476 kts | 232° |
| 2026-05-05 16:26 | 33.85532 | -38.92560 | 40341 ft | 476 kts | 232° |
| 2026-05-05 16:27 | 33.80986 | -38.98354 | 40340 ft | 476 kts | 232° |
| 2026-05-05 16:27 | 33.76432 | -39.04148 | 40337 ft | 477 kts | 232° |
| 2026-05-05 16:28 | 33.71875 | -39.09935 | 40338 ft | 477 kts | 232° |
| 2026-05-05 16:28 | 33.67349 | -39.15676 | 40337 ft | 477 kts | 232° |
| 2026-05-05 16:29 | 33.62787 | -39.21451 | 40338 ft | 477 kts | 232° |
| 2026-05-05 16:29 | 33.58223 | -39.27219 | 40335 ft | 476 kts | 232° |
| 2026-05-05 16:30 | 33.53657 | -39.32982 | 40336 ft | 476 kts | 232° |
| 2026-05-05 16:30 | 33.49090 | -39.38735 | 40332 ft | 476 kts | 232° |
| 2026-05-05 16:31 | 33.44524 | -39.44478 | 40329 ft | 476 kts | 232° |
| 2026-05-05 16:31 | 33.39952 | -39.50220 | 40334 ft | 476 kts | 232° |
| 2026-05-05 16:32 | 33.35379 | -39.55952 | 40330 ft | 476 kts | 232° |
| 2026-05-05 16:32 | 33.30805 | -39.61677 | 40328 ft | 476 kts | 232° |
| 2026-05-05 16:33 | 33.26259 | -39.67357 | 40328 ft | 476 kts | 232° |
| 2026-05-05 16:33 | 33.21689 | -39.73059 | 40324 ft | 476 kts | 231° |
| 2026-05-05 16:34 | 33.17108 | -39.78765 | 40325 ft | 475 kts | 231° |
| 2026-05-05 16:34 | 33.12533 | -39.84455 | 40323 ft | 475 kts | 231° |
| 2026-05-05 16:35 | 33.07953 | -39.90141 | 40323 ft | 475 kts | 231° |
| 2026-05-05 16:35 | 33.03367 | -39.95826 | 40318 ft | 475 kts | 231° |
| 2026-05-05 16:36 | 32.98791 | -40.01501 | 40318 ft | 474 kts | 232° |
| 2026-05-05 16:36 | 32.94385 | -40.07321 | 40319 ft | 473 kts | 234° |
| 2026-05-05 16:37 | 32.90787 | -40.12215 | 40320 ft | 472 kts | 234° |
| 2026-05-05 16:37 | 32.85730 | -40.19028 | 40318 ft | 472 kts | 233° |
| 2026-05-05 16:38 | 32.81357 | -40.24856 | 40317 ft | 472 kts | 233° |
| 2026-05-05 16:38 | 32.77716 | -40.29688 | 40316 ft | 472 kts | 233° |
| 2026-05-05 16:39 | 32.73332 | -40.35497 | 40315 ft | 472 kts | 233° |
| 2026-05-05 16:39 | 32.68948 | -40.41298 | 40314 ft | 472 kts | 233° |
| 2026-05-05 16:40 | 32.64562 | -40.47093 | 40312 ft | 472 kts | 233° |
| 2026-05-05 16:40 | 32.60178 | -40.52879 | 40311 ft | 472 kts | 233° |
| 2026-05-05 16:41 | 32.55787 | -40.58663 | 40305 ft | 472 kts | 233° |
| 2026-05-05 16:41 | 32.51396 | -40.64438 | 40303 ft | 471 kts | 233° |
| 2026-05-05 16:42 | 32.47006 | -40.70205 | 40300 ft | 471 kts | 233° |
| 2026-05-05 16:42 | 32.42642 | -40.75926 | 40310 ft | 471 kts | 233° |
| 2026-05-05 16:43 | 32.38249 | -40.81677 | 40294 ft | 471 kts | 233° |
| 2026-05-05 16:43 | 32.33855 | -40.87421 | 40303 ft | 471 kts | 233° |
| 2026-05-05 16:44 | 32.29458 | -40.93158 | 40304 ft | 471 kts | 233° |
| 2026-05-05 16:44 | 32.25064 | -40.98885 | 40302 ft | 470 kts | 233° |
| 2026-05-05 16:45 | 32.20665 | -41.04607 | 40301 ft | 470 kts | 233° |
| 2026-05-05 16:45 | 32.16266 | -41.10321 | 40301 ft | 470 kts | 233° |
| 2026-05-05 16:46 | 32.11864 | -41.16030 | 40298 ft | 470 kts | 233° |
| 2026-05-05 16:46 | 32.07465 | -41.21727 | 40291 ft | 470 kts | 232° |
| 2026-05-05 16:47 | 32.03091 | -41.27382 | 40295 ft | 469 kts | 232° |
| 2026-05-05 16:47 | 31.98692 | -41.33061 | 40292 ft | 469 kts | 232° |
| 2026-05-05 16:48 | 31.94292 | -41.38733 | 40293 ft | 469 kts | 232° |
| 2026-05-05 16:48 | 31.89895 | -41.44392 | 40293 ft | 468 kts | 232° |
| 2026-05-05 16:49 | 31.85497 | -41.50043 | 40292 ft | 468 kts | 232° |
| 2026-05-05 16:49 | 31.81097 | -41.55689 | 40292 ft | 468 kts | 232° |
| 2026-05-05 16:50 | 31.76696 | -41.61329 | 40291 ft | 468 kts | 232° |
| 2026-05-05 16:50 | 31.72293 | -41.66961 | 40290 ft | 468 kts | 232° |
| 2026-05-05 16:51 | 31.67894 | -41.72579 | 40289 ft | 467 kts | 232° |
| 2026-05-05 16:51 | 31.63490 | -41.78196 | 40287 ft | 467 kts | 232° |
| 2026-05-05 16:52 | 31.59118 | -41.83765 | 40282 ft | 467 kts | 232° |
| 2026-05-05 16:52 | 31.54711 | -41.89368 | 40289 ft | 467 kts | 232° |
| 2026-05-05 16:53 | 31.50305 | -41.94962 | 40282 ft | 467 kts | 232° |
| 2026-05-05 16:53 | 31.45895 | -42.00553 | 40286 ft | 467 kts | 232° |
| 2026-05-05 16:54 | 31.41487 | -42.06134 | 40285 ft | 467 kts | 232° |
| 2026-05-05 16:54 | 31.37073 | -42.11712 | 40286 ft | 467 kts | 232° |
| 2026-05-05 16:55 | 31.32657 | -42.17286 | 40281 ft | 467 kts | 232° |
| 2026-05-05 16:55 | 31.28240 | -42.22852 | 40275 ft | 467 kts | 232° |
| 2026-05-05 16:56 | 31.23821 | -42.28413 | 40279 ft | 467 kts | 232° |
| 2026-05-05 16:56 | 31.19405 | -42.33963 | 40282 ft | 467 kts | 232° |
| 2026-05-05 16:57 | 31.14977 | -42.39518 | 40276 ft | 467 kts | 232° |
| 2026-05-05 16:57 | 31.10550 | -42.45065 | 40282 ft | 467 kts | 232° |
| 2026-05-05 16:58 | 31.06118 | -42.50609 | 40276 ft | 467 kts | 232° |
| 2026-05-05 16:58 | 31.01683 | -42.56149 | 40281 ft | 467 kts | 232° |
| 2026-05-05 16:59 | 30.97246 | -42.61683 | 40274 ft | 467 kts | 232° |
| 2026-05-05 16:59 | 30.92834 | -42.67178 | 40275 ft | 468 kts | 232° |
| 2026-05-05 17:00 | 30.88389 | -42.72706 | 40273 ft | 468 kts | 231° |
| 2026-05-05 17:00 | 30.83936 | -42.78237 | 40285 ft | 468 kts | 231° |
| 2026-05-05 17:01 | 30.79484 | -42.83757 | 40282 ft | 468 kts | 231° |
| 2026-05-05 17:01 | 30.75022 | -42.89282 | 40273 ft | 468 kts | 231° |
| 2026-05-05 17:02 | 30.70559 | -42.94801 | 40272 ft | 469 kts | 231° |
| 2026-05-05 17:02 | 30.66092 | -43.00316 | 40276 ft | 469 kts | 231° |
| 2026-05-05 17:03 | 30.61622 | -43.05828 | 40273 ft | 469 kts | 231° |
| 2026-05-05 17:03 | 30.57147 | -43.11337 | 40273 ft | 469 kts | 231° |
| 2026-05-05 17:04 | 30.52667 | -43.16844 | 40271 ft | 469 kts | 231° |
| 2026-05-05 17:04 | 30.48190 | -43.22340 | 40269 ft | 469 kts | 231° |
| 2026-05-05 17:05 | 30.43702 | -43.27841 | 40271 ft | 469 kts | 231° |
| 2026-05-05 17:05 | 30.39221 | -43.33326 | 40268 ft | 469 kts | 231° |
| 2026-05-05 17:06 | 30.34740 | -43.38804 | 40266 ft | 469 kts | 231° |
| 2026-05-05 17:06 | 30.30247 | -43.44288 | 40267 ft | 469 kts | 231° |
| 2026-05-05 17:07 | 30.25759 | -43.49757 | 40263 ft | 469 kts | 231° |
| 2026-05-05 17:07 | 30.21269 | -43.55222 | 40264 ft | 469 kts | 231° |
| 2026-05-05 17:08 | 30.16805 | -43.60648 | 40263 ft | 469 kts | 231° |
| 2026-05-05 17:08 | 30.12316 | -43.66097 | 40264 ft | 469 kts | 231° |
| 2026-05-05 17:09 | 30.07817 | -43.71549 | 40264 ft | 468 kts | 231° |
| 2026-05-05 17:09 | 30.03321 | -43.76991 | 40263 ft | 468 kts | 231° |
| 2026-05-05 17:10 | 29.98820 | -43.82430 | 40263 ft | 468 kts | 231° |
| 2026-05-05 17:10 | 29.94322 | -43.87859 | 40266 ft | 468 kts | 231° |
| 2026-05-05 17:11 | 29.89820 | -43.93286 | 40261 ft | 468 kts | 231° |
| 2026-05-05 17:11 | 29.85313 | -43.98710 | 40259 ft | 468 kts | 231° |
| 2026-05-05 17:12 | 29.80807 | -44.04126 | 40260 ft | 468 kts | 231° |
| 2026-05-05 17:12 | 29.76297 | -44.09539 | 40265 ft | 469 kts | 231° |
| 2026-05-05 17:13 | 29.71809 | -44.14917 | 40263 ft | 469 kts | 231° |
| 2026-05-05 17:13 | 29.67264 | -44.20358 | 40263 ft | 469 kts | 231° |
| 2026-05-05 17:14 | 29.62770 | -44.25729 | 40263 ft | 469 kts | 231° |
| 2026-05-05 17:14 | 29.58243 | -44.31133 | 40258 ft | 469 kts | 231° |
| 2026-05-05 17:15 | 29.53715 | -44.36530 | 40258 ft | 469 kts | 231° |
| 2026-05-05 17:15 | 29.49181 | -44.41927 | 40260 ft | 470 kts | 230° |
| 2026-05-05 17:16 | 29.44646 | -44.47317 | 40261 ft | 470 kts | 230° |
| 2026-05-05 17:16 | 29.40104 | -44.52707 | 40259 ft | 470 kts | 230° |
| 2026-05-05 17:17 | 29.35560 | -44.58094 | 40254 ft | 470 kts | 230° |
| 2026-05-05 17:17 | 29.31045 | -44.63439 | 40257 ft | 470 kts | 230° |
| 2026-05-05 17:18 | 29.26498 | -44.68814 | 40256 ft | 470 kts | 230° |
| 2026-05-05 17:18 | 29.21947 | -44.74187 | 40258 ft | 470 kts | 230° |
| 2026-05-05 17:19 | 29.17395 | -44.79553 | 40256 ft | 470 kts | 230° |
| 2026-05-05 17:19 | 29.12839 | -44.84916 | 40257 ft | 470 kts | 230° |
| 2026-05-05 17:20 | 29.08281 | -44.90276 | 40257 ft | 470 kts | 230° |
| 2026-05-05 17:20 | 29.03722 | -44.95629 | 40254 ft | 470 kts | 230° |
| 2026-05-05 17:21 | 28.99160 | -45.00985 | 40257 ft | 470 kts | 230° |
| 2026-05-05 17:22 | 28.92779 | -45.09362 | 40257 ft | 468 kts | 234° |
| 2026-05-05 17:22 | 28.88596 | -45.15045 | 40254 ft | 468 kts | 234° |
| 2026-05-05 17:23 | 28.84363 | -45.20692 | 40255 ft | 468 kts | 233° |
| 2026-05-05 17:23 | 28.80103 | -45.26313 | 40255 ft | 468 kts | 233° |
| 2026-05-05 17:24 | 28.75837 | -45.31925 | 40255 ft | 468 kts | 233° |
| 2026-05-05 17:24 | 28.71567 | -45.37537 | 40254 ft | 468 kts | 233° |
| 2026-05-05 17:25 | 28.67300 | -45.43142 | 40255 ft | 469 kts | 233° |
| 2026-05-05 17:25 | 28.63057 | -45.48707 | 40253 ft | 468 kts | 233° |
| 2026-05-05 17:26 | 28.58784 | -45.54305 | 40257 ft | 468 kts | 233° |
| 2026-05-05 17:26 | 28.54507 | -45.59901 | 40255 ft | 468 kts | 233° |
| 2026-05-05 17:27 | 28.50229 | -45.65490 | 40249 ft | 469 kts | 233° |
| 2026-05-05 17:27 | 28.45946 | -45.71078 | 40247 ft | 469 kts | 233° |
| 2026-05-05 17:28 | 28.41663 | -45.76659 | 40250 ft | 469 kts | 233° |
| 2026-05-05 17:28 | 28.37403 | -45.82202 | 40251 ft | 469 kts | 233° |
| 2026-05-05 17:29 | 28.33116 | -45.87773 | 40251 ft | 469 kts | 233° |
| 2026-05-05 17:29 | 28.28821 | -45.93347 | 40247 ft | 469 kts | 233° |
| 2026-05-05 17:30 | 28.24526 | -45.98913 | 40246 ft | 469 kts | 233° |
| 2026-05-05 17:30 | 28.20232 | -46.04471 | 40248 ft | 469 kts | 233° |
| 2026-05-05 17:31 | 28.15957 | -46.09997 | 40247 ft | 469 kts | 233° |
| 2026-05-05 17:31 | 28.11657 | -46.15548 | 40244 ft | 469 kts | 233° |
| 2026-05-05 17:32 | 28.07352 | -46.21098 | 40251 ft | 469 kts | 233° |
| 2026-05-05 17:32 | 28.03041 | -46.26648 | 40246 ft | 469 kts | 233° |
| 2026-05-05 17:33 | 27.98732 | -46.32189 | 40244 ft | 469 kts | 233° |
| 2026-05-05 17:33 | 27.94418 | -46.37728 | 40247 ft | 469 kts | 233° |
| 2026-05-05 17:34 | 27.90101 | -46.43265 | 40246 ft | 469 kts | 233° |
| 2026-05-05 17:34 | 27.85809 | -46.48761 | 40242 ft | 469 kts | 233° |
| 2026-05-05 17:35 | 27.81487 | -46.54289 | 40241 ft | 469 kts | 233° |
| 2026-05-05 17:35 | 27.77161 | -46.59815 | 40243 ft | 469 kts | 233° |
| 2026-05-05 17:36 | 27.72837 | -46.65332 | 40240 ft | 469 kts | 233° |
| 2026-05-05 17:36 | 27.68505 | -46.70851 | 40244 ft | 469 kts | 233° |
| 2026-05-05 17:37 | 27.64173 | -46.76363 | 40245 ft | 469 kts | 232° |
| 2026-05-05 17:37 | 27.59839 | -46.81871 | 40241 ft | 469 kts | 232° |
| 2026-05-05 17:38 | 27.55503 | -46.87375 | 40241 ft | 470 kts | 232° |
| 2026-05-05 17:38 | 27.51197 | -46.92832 | 40240 ft | 470 kts | 232° |
| 2026-05-05 17:39 | 27.46853 | -46.98331 | 40237 ft | 470 kts | 232° |
| 2026-05-05 17:39 | 27.42507 | -47.03826 | 40241 ft | 470 kts | 232° |
| 2026-05-05 17:40 | 27.38161 | -47.09313 | 40239 ft | 470 kts | 232° |
| 2026-05-05 17:40 | 27.33810 | -47.14800 | 40236 ft | 470 kts | 232° |
| 2026-05-05 17:41 | 27.30193 | -47.19356 | 40234 ft | 470 kts | 232° |
| 2026-05-05 17:41 | 27.25129 | -47.25726 | 40232 ft | 470 kts | 232° |
| 2026-05-05 17:42 | 27.20771 | -47.31201 | 40229 ft | 470 kts | 232° |
| 2026-05-05 17:42 | 27.17115 | -47.35788 | 40227 ft | 470 kts | 232° |
| 2026-05-05 17:43 | 27.12783 | -47.41217 | 40223 ft | 470 kts | 232° |
| 2026-05-05 17:43 | 27.08417 | -47.46683 | 40240 ft | 470 kts | 232° |
| 2026-05-05 17:44 | 27.04046 | -47.52148 | 40236 ft | 470 kts | 232° |
| 2026-05-05 17:44 | 26.99674 | -47.57606 | 40229 ft | 471 kts | 232° |
| 2026-05-05 17:45 | 26.95298 | -47.63063 | 40233 ft | 471 kts | 232° |
| 2026-05-05 17:45 | 26.90913 | -47.68524 | 40225 ft | 471 kts | 232° |
| 2026-05-05 17:46 | 26.86533 | -47.73972 | 40230 ft | 471 kts | 232° |
| 2026-05-05 17:46 | 26.82178 | -47.79382 | 40223 ft | 471 kts | 232° |
| 2026-05-05 17:47 | 26.77792 | -47.84825 | 40229 ft | 471 kts | 232° |
| 2026-05-05 17:47 | 26.73405 | -47.90261 | 40230 ft | 471 kts | 232° |
| 2026-05-05 17:48 | 26.69014 | -47.95696 | 40229 ft | 471 kts | 231° |
| 2026-05-05 17:48 | 26.64621 | -48.01127 | 40219 ft | 471 kts | 231° |
| 2026-05-05 17:49 | 26.60226 | -48.06552 | 40225 ft | 471 kts | 231° |
| 2026-05-05 17:49 | 26.55830 | -48.11973 | 40221 ft | 471 kts | 231° |
| 2026-05-05 17:50 | 26.51431 | -48.17390 | 40218 ft | 471 kts | 231° |
| 2026-05-05 17:50 | 26.47030 | -48.22805 | 40224 ft | 471 kts | 231° |
| 2026-05-05 17:51 | 26.42628 | -48.28213 | 40221 ft | 471 kts | 231° |
| 2026-05-05 17:51 | 26.38252 | -48.33582 | 40225 ft | 471 kts | 231° |
| 2026-05-05 17:52 | 26.33843 | -48.38985 | 40227 ft | 471 kts | 231° |
| 2026-05-05 17:52 | 26.29437 | -48.44379 | 40227 ft | 471 kts | 231° |
| 2026-05-05 17:53 | 26.25022 | -48.49776 | 40222 ft | 471 kts | 231° |
| 2026-05-05 17:53 | 26.20607 | -48.55167 | 40219 ft | 471 kts | 231° |
| 2026-05-05 17:54 | 26.16189 | -48.60555 | 40218 ft | 471 kts | 231° |
| 2026-05-05 17:54 | 26.11769 | -48.65940 | 40219 ft | 471 kts | 231° |
| 2026-05-05 17:55 | 26.07345 | -48.71323 | 40218 ft | 471 kts | 231° |
| 2026-05-05 17:55 | 26.02920 | -48.76700 | 40218 ft | 471 kts | 231° |
| 2026-05-05 17:56 | 25.98495 | -48.82071 | 40217 ft | 471 kts | 231° |
| 2026-05-05 17:56 | 25.94097 | -48.87402 | 40218 ft | 471 kts | 231° |
| 2026-05-05 17:57 | 25.89665 | -48.92769 | 40215 ft | 471 kts | 231° |
| 2026-05-05 17:57 | 25.85230 | -48.98133 | 40217 ft | 471 kts | 231° |
| 2026-05-05 17:58 | 25.80796 | -49.03489 | 40214 ft | 471 kts | 231° |
| 2026-05-05 17:58 | 25.76353 | -49.08849 | 40211 ft | 471 kts | 231° |
| 2026-05-05 17:59 | 25.71915 | -49.14197 | 40212 ft | 471 kts | 231° |
| 2026-05-05 17:59 | 25.67470 | -49.19548 | 40212 ft | 471 kts | 231° |
| 2026-05-05 18:00 | 25.63027 | -49.24889 | 40212 ft | 472 kts | 231° |
| 2026-05-05 18:00 | 25.58575 | -49.30234 | 40212 ft | 472 kts | 231° |
| 2026-05-05 18:01 | 25.54126 | -49.35570 | 40213 ft | 472 kts | 231° |
| 2026-05-05 18:01 | 25.49702 | -49.40870 | 40204 ft | 471 kts | 231° |
| 2026-05-05 18:02 | 25.45248 | -49.46200 | 40213 ft | 472 kts | 231° |
| 2026-05-05 18:02 | 25.40792 | -49.51525 | 40214 ft | 472 kts | 230° |
| 2026-05-05 18:03 | 25.36335 | -49.56847 | 40207 ft | 472 kts | 230° |
| 2026-05-05 18:03 | 25.31872 | -49.62168 | 40208 ft | 472 kts | 230° |
| 2026-05-05 18:04 | 25.27409 | -49.67484 | 40209 ft | 472 kts | 230° |
| 2026-05-05 18:04 | 25.22943 | -49.72797 | 40207 ft | 472 kts | 230° |
| 2026-05-05 18:05 | 25.18474 | -49.78106 | 40203 ft | 472 kts | 230° |
| 2026-05-05 18:05 | 25.14004 | -49.83412 | 40206 ft | 472 kts | 230° |
| 2026-05-05 18:06 | 25.09526 | -49.88721 | 40206 ft | 472 kts | 230° |
| 2026-05-05 18:06 | 25.05081 | -49.93984 | 40206 ft | 472 kts | 230° |
| 2026-05-05 18:07 | 25.00602 | -49.99283 | 40203 ft | 472 kts | 230° |
| 2026-05-05 18:07 | 24.96238 | -50.04682 | 40201 ft | 471 kts | 233° |
| 2026-05-05 18:08 | 24.92085 | -50.10251 | 40202 ft | 471 kts | 234° |
| 2026-05-05 18:08 | 24.87925 | -50.15823 | 40202 ft | 471 kts | 233° |
| 2026-05-05 18:09 | 24.83729 | -50.21356 | 40194 ft | 471 kts | 233° |
| 2026-05-05 18:09 | 24.79509 | -50.26877 | 40202 ft | 471 kts | 233° |
| 2026-05-05 18:10 | 24.75290 | -50.32386 | 40198 ft | 471 kts | 233° |
| 2026-05-05 18:10 | 24.71095 | -50.37861 | 40197 ft | 471 kts | 233° |
| 2026-05-05 18:11 | 24.66873 | -50.43366 | 40197 ft | 471 kts | 233° |
| 2026-05-05 18:11 | 24.62648 | -50.48871 | 40192 ft | 471 kts | 233° |
| 2026-05-05 18:12 | 24.58418 | -50.54375 | 40200 ft | 471 kts | 233° |
| 2026-05-05 18:12 | 24.54186 | -50.59874 | 40194 ft | 471 kts | 233° |
| 2026-05-05 18:13 | 24.49956 | -50.65366 | 40193 ft | 471 kts | 233° |
| 2026-05-05 18:13 | 24.45720 | -50.70859 | 40196 ft | 471 kts | 233° |
| 2026-05-05 18:14 | 24.41480 | -50.76350 | 40193 ft | 471 kts | 233° |
| 2026-05-05 18:14 | 24.37239 | -50.81837 | 40195 ft | 471 kts | 233° |
| 2026-05-05 18:15 | 24.33026 | -50.87281 | 40203 ft | 472 kts | 233° |
| 2026-05-05 18:15 | 24.28780 | -50.92762 | 40194 ft | 471 kts | 233° |
| 2026-05-05 18:16 | 24.24537 | -50.98233 | 40194 ft | 471 kts | 233° |
| 2026-05-05 18:16 | 24.20289 | -51.03704 | 40191 ft | 471 kts | 233° |
| 2026-05-05 18:17 | 24.16036 | -51.09174 | 40189 ft | 471 kts | 233° |
| 2026-05-05 18:17 | 24.11784 | -51.14638 | 40189 ft | 471 kts | 233° |
| 2026-05-05 18:18 | 24.07527 | -51.20102 | 40192 ft | 471 kts | 233° |
| 2026-05-05 18:18 | 24.03271 | -51.25559 | 40188 ft | 471 kts | 232° |
| 2026-05-05 18:19 | 23.99013 | -51.31012 | 40190 ft | 471 kts | 232° |
| 2026-05-05 18:19 | 23.94753 | -51.36461 | 40185 ft | 471 kts | 232° |
| 2026-05-05 18:20 | 23.90491 | -51.41908 | 40196 ft | 471 kts | 232° |
| 2026-05-05 18:20 | 23.86256 | -51.47314 | 40182 ft | 471 kts | 232° |
| 2026-05-05 18:21 | 23.81988 | -51.52755 | 40197 ft | 472 kts | 232° |
| 2026-05-05 18:21 | 23.77720 | -51.58192 | 40196 ft | 471 kts | 232° |
| 2026-05-05 18:22 | 23.73448 | -51.63626 | 40179 ft | 471 kts | 232° |
| 2026-05-05 18:22 | 23.69176 | -51.69055 | 40182 ft | 472 kts | 232° |
| 2026-05-05 18:23 | 23.64900 | -51.74484 | 40189 ft | 472 kts | 232° |
| 2026-05-05 18:23 | 23.60621 | -51.79909 | 40185 ft | 472 kts | 232° |
| 2026-05-05 18:24 | 23.56339 | -51.85333 | 40188 ft | 472 kts | 232° |
| 2026-05-05 18:24 | 23.52083 | -51.90717 | 40168 ft | 472 kts | 232° |
| 2026-05-05 18:25 | 23.47797 | -51.96135 | 40176 ft | 472 kts | 232° |
| 2026-05-05 18:25 | 23.43509 | -52.01548 | 40178 ft | 472 kts | 232° |
| 2026-05-05 18:26 | 23.39221 | -52.06956 | 40180 ft | 472 kts | 232° |
| 2026-05-05 18:26 | 23.34931 | -52.12360 | 40181 ft | 472 kts | 232° |
| 2026-05-05 18:27 | 23.30638 | -52.17763 | 40180 ft | 472 kts | 232° |
| 2026-05-05 18:27 | 23.26345 | -52.23160 | 40178 ft | 472 kts | 232° |
| 2026-05-05 18:28 | 23.19928 | -52.31216 | 40179 ft | 472 kts | 232° |
| 2026-05-05 18:28 | 23.15629 | -52.36605 | 40177 ft | 472 kts | 232° |
| 2026-05-05 18:29 | 23.11323 | -52.41998 | 40178 ft | 472 kts | 232° |
| 2026-05-05 18:29 | 23.07016 | -52.47387 | 40177 ft | 472 kts | 232° |
| 2026-05-05 18:30 | 23.02708 | -52.52770 | 40173 ft | 472 kts | 232° |
| 2026-05-05 18:30 | 22.98401 | -52.58148 | 40176 ft | 472 kts | 232° |
| 2026-05-05 18:31 | 22.94088 | -52.63525 | 40173 ft | 472 kts | 232° |
| 2026-05-05 18:31 | 22.89773 | -52.68901 | 40174 ft | 472 kts | 232° |
| 2026-05-05 18:32 | 22.85456 | -52.74273 | 40172 ft | 472 kts | 232° |
| 2026-05-05 18:32 | 22.81167 | -52.79605 | 40172 ft | 472 kts | 232° |
| 2026-05-05 18:33 | 22.76848 | -52.84968 | 40169 ft | 472 kts | 232° |
| 2026-05-05 18:33 | 22.72527 | -52.90329 | 40169 ft | 472 kts | 232° |
| 2026-05-05 18:34 | 22.68204 | -52.95686 | 40172 ft | 472 kts | 232° |
| 2026-05-05 18:34 | 22.63877 | -53.01042 | 40172 ft | 472 kts | 232° |
| 2026-05-05 18:35 | 22.59550 | -53.06394 | 40169 ft | 472 kts | 232° |
| 2026-05-05 18:35 | 22.55220 | -53.11743 | 40168 ft | 472 kts | 232° |
| 2026-05-05 18:36 | 22.50923 | -53.17046 | 40165 ft | 472 kts | 232° |
| 2026-05-05 18:36 | 22.46590 | -53.22387 | 40165 ft | 472 kts | 231° |
| 2026-05-05 18:37 | 22.42259 | -53.27722 | 40162 ft | 472 kts | 231° |
| 2026-05-05 18:37 | 22.37924 | -53.33055 | 40161 ft | 472 kts | 231° |
| 2026-05-05 18:38 | 22.33591 | -53.38380 | 40160 ft | 472 kts | 231° |
| 2026-05-05 18:38 | 22.29253 | -53.43707 | 40163 ft | 472 kts | 231° |
| 2026-05-05 18:39 | 22.24943 | -53.48992 | 40163 ft | 472 kts | 231° |
| 2026-05-05 18:39 | 22.20605 | -53.54308 | 40162 ft | 472 kts | 231° |
| 2026-05-05 18:40 | 22.16265 | -53.59620 | 40159 ft | 472 kts | 231° |
| 2026-05-05 18:40 | 22.11922 | -53.64931 | 40161 ft | 472 kts | 231° |
| 2026-05-05 18:41 | 22.07575 | -53.70241 | 40161 ft | 472 kts | 231° |
| 2026-05-05 18:41 | 22.03229 | -53.75544 | 40159 ft | 472 kts | 231° |
| 2026-05-05 18:42 | 21.98879 | -53.80847 | 40159 ft | 472 kts | 231° |
| 2026-05-05 18:42 | 21.94556 | -53.86113 | 40158 ft | 472 kts | 231° |
| 2026-05-05 18:43 | 21.90206 | -53.91405 | 40158 ft | 472 kts | 231° |
| 2026-05-05 18:43 | 21.85857 | -53.96691 | 40155 ft | 472 kts | 231° |
| 2026-05-05 18:44 | 21.81505 | -54.01976 | 40156 ft | 472 kts | 231° |
| 2026-05-05 18:44 | 21.77148 | -54.07260 | 40153 ft | 472 kts | 231° |
| 2026-05-05 18:45 | 21.72794 | -54.12537 | 40153 ft | 472 kts | 231° |
| 2026-05-05 18:45 | 21.68435 | -54.17814 | 40154 ft | 472 kts | 231° |
| 2026-05-05 18:46 | 21.64814 | -54.22193 | 40152 ft | 472 kts | 231° |
| 2026-05-05 18:46 | 21.60453 | -54.27463 | 40151 ft | 472 kts | 231° |
| 2026-05-05 18:47 | 21.55383 | -54.33584 | 40149 ft | 472 kts | 231° |
| 2026-05-05 18:47 | 21.51022 | -54.38843 | 40152 ft | 472 kts | 231° |
| 2026-05-05 18:48 | 21.47362 | -54.43252 | 40149 ft | 472 kts | 231° |
| 2026-05-05 18:48 | 21.42994 | -54.48510 | 40148 ft | 472 kts | 231° |
| 2026-05-05 18:49 | 21.38660 | -54.53721 | 40149 ft | 471 kts | 231° |
| 2026-05-05 18:49 | 21.34292 | -54.58969 | 40147 ft | 471 kts | 231° |
| 2026-05-05 18:50 | 21.29924 | -54.64212 | 40147 ft | 471 kts | 231° |
| 2026-05-05 18:50 | 21.25552 | -54.69455 | 40146 ft | 472 kts | 231° |
| 2026-05-05 18:51 | 21.21177 | -54.74696 | 40146 ft | 472 kts | 230° |
| 2026-05-05 18:51 | 21.16799 | -54.79935 | 40147 ft | 472 kts | 230° |
| 2026-05-05 18:52 | 21.12419 | -54.85171 | 40144 ft | 472 kts | 230° |
| 2026-05-05 18:52 | 21.08042 | -54.90400 | 40144 ft | 472 kts | 230° |
| 2026-05-05 18:53 | 21.03686 | -54.95598 | 40143 ft | 472 kts | 230° |
| 2026-05-05 18:53 | 20.99517 | -55.00997 | 40143 ft | 469 kts | 239° |
| 2026-05-05 18:54 | 20.96001 | -55.06865 | 40141 ft | 468 kts | 240° |
| 2026-05-05 18:54 | 20.92591 | -55.12805 | 40137 ft | 468 kts | 240° |
| 2026-05-05 18:55 | 20.89188 | -55.18753 | 40137 ft | 469 kts | 240° |
| 2026-05-05 18:55 | 20.85774 | -55.24688 | 40137 ft | 469 kts | 240° |
| 2026-05-05 18:56 | 20.82351 | -55.30614 | 40137 ft | 469 kts | 240° |
| 2026-05-05 18:56 | 20.78946 | -55.36501 | 40139 ft | 469 kts | 240° |
| 2026-05-05 18:57 | 20.75516 | -55.42424 | 40140 ft | 469 kts | 240° |
| 2026-05-05 18:57 | 20.72086 | -55.48342 | 40137 ft | 469 kts | 240° |
| 2026-05-05 18:58 | 20.68656 | -55.54256 | 40137 ft | 469 kts | 240° |
| 2026-05-05 18:58 | 20.65219 | -55.60175 | 40134 ft | 469 kts | 240° |
| 2026-05-05 18:59 | 20.61783 | -55.66086 | 40134 ft | 469 kts | 240° |
| 2026-05-05 18:59 | 20.58344 | -55.71995 | 40132 ft | 469 kts | 240° |
| 2026-05-05 19:00 | 20.54926 | -55.77863 | 40131 ft | 469 kts | 240° |
| 2026-05-05 19:00 | 20.51484 | -55.83765 | 40129 ft | 469 kts | 240° |
| 2026-05-05 19:01 | 20.48037 | -55.89671 | 40130 ft | 469 kts | 240° |
| 2026-05-05 19:01 | 20.44590 | -55.95571 | 40128 ft | 469 kts | 240° |
| 2026-05-05 19:02 | 20.41139 | -56.01470 | 40134 ft | 469 kts | 240° |
| 2026-05-05 19:02 | 20.37690 | -56.07361 | 40129 ft | 469 kts | 240° |
| 2026-05-05 19:03 | 20.34261 | -56.13211 | 40127 ft | 469 kts | 240° |
| 2026-05-05 19:03 | 20.30805 | -56.19103 | 40129 ft | 469 kts | 239° |
| 2026-05-05 19:04 | 20.27349 | -56.24988 | 40128 ft | 469 kts | 239° |
| 2026-05-05 19:04 | 20.23885 | -56.30879 | 40127 ft | 469 kts | 239° |
| 2026-05-05 19:05 | 20.20424 | -56.36760 | 40126 ft | 469 kts | 239° |
| 2026-05-05 19:05 | 20.16959 | -56.42643 | 40127 ft | 469 kts | 239° |
| 2026-05-05 19:06 | 20.13517 | -56.48480 | 40127 ft | 469 kts | 239° |
| 2026-05-05 19:06 | 20.10051 | -56.54351 | 40127 ft | 469 kts | 239° |
| 2026-05-05 19:07 | 20.06579 | -56.60228 | 40127 ft | 469 kts | 239° |
| 2026-05-05 19:07 | 20.03107 | -56.66097 | 40128 ft | 469 kts | 239° |
| 2026-05-05 19:08 | 19.99632 | -56.71967 | 40125 ft | 469 kts | 239° |
| 2026-05-05 19:08 | 19.96158 | -56.77829 | 40124 ft | 469 kts | 239° |
| 2026-05-05 19:09 | 19.92703 | -56.83653 | 40123 ft | 469 kts | 239° |
| 2026-05-05 19:09 | 19.89224 | -56.89512 | 40121 ft | 469 kts | 239° |
| 2026-05-05 19:10 | 19.85743 | -56.95369 | 40123 ft | 469 kts | 239° |
| 2026-05-05 19:10 | 19.82259 | -57.01224 | 40121 ft | 469 kts | 239° |
| 2026-05-05 19:11 | 19.78775 | -57.07074 | 40120 ft | 469 kts | 239° |
| 2026-05-05 19:11 | 19.75286 | -57.12926 | 40118 ft | 469 kts | 239° |
| 2026-05-05 19:12 | 19.71798 | -57.18772 | 40117 ft | 469 kts | 239° |
| 2026-05-05 19:12 | 19.68310 | -57.24611 | 40122 ft | 469 kts | 239° |
| 2026-05-05 19:13 | 19.64811 | -57.30463 | 40119 ft | 469 kts | 239° |
| 2026-05-05 19:13 | 19.61317 | -57.36301 | 40118 ft | 469 kts | 239° |
| 2026-05-05 19:14 | 19.57820 | -57.42138 | 40118 ft | 469 kts | 239° |
| 2026-05-05 19:14 | 19.54337 | -57.47947 | 40116 ft | 469 kts | 239° |
| 2026-05-05 19:15 | 19.50834 | -57.53782 | 40118 ft | 469 kts | 239° |
| 2026-05-05 19:15 | 19.47329 | -57.59616 | 40113 ft | 469 kts | 239° |
| 2026-05-05 19:16 | 19.43821 | -57.65449 | 40114 ft | 469 kts | 239° |
| 2026-05-05 19:16 | 19.40313 | -57.71277 | 40117 ft | 469 kts | 239° |
| 2026-05-05 19:17 | 19.36803 | -57.77102 | 40114 ft | 469 kts | 239° |
| 2026-05-05 19:17 | 19.33286 | -57.82933 | 40113 ft | 470 kts | 239° |
| 2026-05-05 19:18 | 19.29767 | -57.88762 | 40114 ft | 470 kts | 238° |
| 2026-05-05 19:18 | 19.26250 | -57.94582 | 40113 ft | 469 kts | 238° |
| 2026-05-05 19:19 | 19.22729 | -58.00404 | 40114 ft | 469 kts | 238° |
| 2026-05-05 19:19 | 19.19209 | -58.06218 | 40111 ft | 469 kts | 238° |
| 2026-05-05 19:20 | 19.15689 | -58.12026 | 40113 ft | 469 kts | 238° |
| 2026-05-05 19:20 | 19.12164 | -58.17837 | 40107 ft | 469 kts | 238° |
| 2026-05-05 19:21 | 19.08659 | -58.23609 | 40108 ft | 469 kts | 238° |
| 2026-05-05 19:21 | 19.05133 | -58.29412 | 40106 ft | 469 kts | 238° |
| 2026-05-05 19:22 | 19.01605 | -58.35211 | 40109 ft | 469 kts | 238° |
| 2026-05-05 19:22 | 18.98073 | -58.41012 | 40107 ft | 469 kts | 238° |
| 2026-05-05 19:23 | 18.94545 | -58.46802 | 40109 ft | 469 kts | 238° |
| 2026-05-05 19:23 | 18.91011 | -58.52595 | 40106 ft | 469 kts | 238° |
| 2026-05-05 19:24 | 18.87476 | -58.58384 | 40106 ft | 469 kts | 238° |
| 2026-05-05 19:24 | 18.83939 | -58.64171 | 40105 ft | 469 kts | 238° |
| 2026-05-05 19:25 | 18.80402 | -58.69954 | 40104 ft | 469 kts | 238° |
| 2026-05-05 19:25 | 18.76864 | -58.75732 | 40101 ft | 469 kts | 238° |
| 2026-05-05 19:26 | 18.73328 | -58.81503 | 40101 ft | 469 kts | 238° |
| 2026-05-05 19:26 | 18.69783 | -58.87281 | 40100 ft | 469 kts | 238° |
| 2026-05-05 19:27 | 18.66238 | -58.93055 | 40101 ft | 469 kts | 238° |
| 2026-05-05 19:27 | 18.62690 | -58.98829 | 40099 ft | 469 kts | 238° |
| 2026-05-05 19:28 | 18.59142 | -59.04598 | 40100 ft | 469 kts | 238° |
| 2026-05-05 19:28 | 18.55594 | -59.10361 | 40096 ft | 469 kts | 238° |
| 2026-05-05 19:29 | 18.52041 | -59.16127 | 40095 ft | 469 kts | 238° |
| 2026-05-05 19:29 | 18.48511 | -59.21850 | 40096 ft | 469 kts | 238° |
| 2026-05-05 19:30 | 18.44956 | -59.27609 | 40091 ft | 469 kts | 238° |
| 2026-05-05 19:30 | 18.41395 | -59.33372 | 40093 ft | 469 kts | 238° |
| 2026-05-05 19:31 | 18.37832 | -59.39133 | 40094 ft | 469 kts | 238° |
| 2026-05-05 19:31 | 18.34270 | -59.44887 | 40092 ft | 469 kts | 238° |
| 2026-05-05 19:32 | 18.30702 | -59.50647 | 40091 ft | 469 kts | 238° |
| 2026-05-05 19:32 | 18.27136 | -59.56397 | 40093 ft | 469 kts | 238° |
| 2026-05-05 19:33 | 18.23566 | -59.62149 | 40091 ft | 469 kts | 238° |
| 2026-05-05 19:33 | 18.20021 | -59.67855 | 40090 ft | 469 kts | 238° |
| 2026-05-05 19:34 | 18.16455 | -59.73591 | 40087 ft | 469 kts | 238° |
| 2026-05-05 19:35 | 18.11088 | -59.82213 | 40088 ft | 469 kts | 238° |
| 2026-05-05 19:35 | 18.07511 | -59.87953 | 40089 ft | 469 kts | 238° |
| 2026-05-05 19:36 | 18.03936 | -59.93687 | 40086 ft | 469 kts | 238° |
| 2026-05-05 19:36 | 18.00238 | -59.99328 | 40086 ft | 470 kts | 231° |
| 2026-05-05 19:37 | 17.95469 | -60.04039 | 40084 ft | 471 kts | 222° |
| 2026-05-05 19:37 | 17.90525 | -60.08498 | 39980 ft | 471 kts | 222° |
| 2026-05-05 19:37 | 17.88045 | -60.10726 | 39728 ft | 466 kts | 222° |
| 2026-05-05 19:38 | 17.85592 | -60.12927 | 39378 ft | 462 kts | 222° |
| 2026-05-05 19:38 | 17.83146 | -60.15123 | 38716 ft | 465 kts | 222° |
| 2026-05-05 19:38 | 17.80678 | -60.17337 | 37999 ft | 467 kts | 222° |
| 2026-05-05 19:38 | 17.78206 | -60.19553 | 37346 ft | 468 kts | 222° |
| 2026-05-05 19:39 | 17.75728 | -60.21773 | 36684 ft | 469 kts | 221° |
| 2026-05-05 19:39 | 17.73243 | -60.23999 | 36009 ft | 471 kts | 221° |
| 2026-05-05 19:39 | 17.70745 | -60.26236 | 35332 ft | 473 kts | 221° |
| 2026-05-05 19:39 | 17.68245 | -60.28472 | 34821 ft | 471 kts | 221° |
| 2026-05-05 19:40 | 17.65757 | -60.30697 | 34304 ft | 470 kts | 221° |
| 2026-05-05 19:40 | 17.63273 | -60.32919 | 33748 ft | 468 kts | 221° |
| 2026-05-05 19:40 | 17.60811 | -60.35120 | 33181 ft | 466 kts | 221° |
| 2026-05-05 19:40 | 17.58345 | -60.37324 | 32668 ft | 463 kts | 221° |
| 2026-05-05 19:41 | 17.55900 | -60.39509 | 32148 ft | 460 kts | 220° |
| 2026-05-05 19:41 | 17.53469 | -60.41679 | 31644 ft | 458 kts | 220° |
| 2026-05-05 19:41 | 17.51085 | -60.43808 | 31138 ft | 455 kts | 220° |
| 2026-05-05 19:41 | 17.48678 | -60.45956 | 30627 ft | 453 kts | 219° |
| 2026-05-05 19:42 | 17.46282 | -60.48093 | 30114 ft | 451 kts | 219° |
| 2026-05-05 19:42 | 17.43899 | -60.50217 | 29550 ft | 449 kts | 219° |
| 2026-05-05 19:42 | 17.41530 | -60.52328 | 29036 ft | 445 kts | 219° |
| 2026-05-05 19:42 | 17.39149 | -60.54447 | 28527 ft | 441 kts | 219° |
| 2026-05-05 19:43 | 17.36818 | -60.56522 | 28011 ft | 438 kts | 219° |
| 2026-05-05 19:43 | 17.35288 | -60.57885 | 27690 ft | 436 kts | 219° |
| 2026-05-05 19:43 | 17.32472 | -60.60392 | 27075 ft | 432 kts | 219° |
| 2026-05-05 19:43 | 17.30190 | -60.62423 | 26570 ft | 429 kts | 219° |
| 2026-05-05 19:44 | 17.27923 | -60.64440 | 26072 ft | 427 kts | 219° |
| 2026-05-05 19:44 | 17.25668 | -60.66445 | 25572 ft | 424 kts | 219° |
| 2026-05-05 19:44 | 17.23425 | -60.68442 | 25071 ft | 422 kts | 219° |
| 2026-05-05 19:44 | 17.21345 | -60.70603 | 24547 ft | 422 kts | 227° |
| 2026-05-05 19:45 | 17.19453 | -60.72885 | 24036 ft | 420 kts | 228° |
| 2026-05-05 19:45 | 17.17539 | -60.75239 | 23497 ft | 418 kts | 229° |
| 2026-05-05 19:45 | 17.15682 | -60.77516 | 22957 ft | 415 kts | 229° |
| 2026-05-05 19:45 | 17.13818 | -60.79796 | 22444 ft | 411 kts | 229° |
| 2026-05-05 19:46 | 17.11968 | -60.82055 | 21945 ft | 407 kts | 229° |
| 2026-05-05 19:46 | 17.10136 | -60.84291 | 21449 ft | 403 kts | 230° |
| 2026-05-05 19:46 | 17.08324 | -60.86500 | 20961 ft | 399 kts | 230° |
| 2026-05-05 19:46 | 17.06522 | -60.88695 | 20472 ft | 396 kts | 230° |
| 2026-05-05 19:47 | 17.04736 | -60.90870 | 19985 ft | 393 kts | 231° |
| 2026-05-05 19:47 | 17.02963 | -60.93032 | 19504 ft | 390 kts | 231° |
| 2026-05-05 19:47 | 17.01201 | -60.95179 | 19017 ft | 388 kts | 231° |
| 2026-05-05 19:47 | 16.99447 | -60.97316 | 18543 ft | 386 kts | 231° |
| 2026-05-05 19:48 | 16.97707 | -60.99434 | 18020 ft | 384 kts | 231° |
| 2026-05-05 19:48 | 16.95979 | -61.01538 | 17525 ft | 380 kts | 231° |
| 2026-05-05 19:48 | 16.94263 | -61.03624 | 17052 ft | 376 kts | 231° |
| 2026-05-05 19:48 | 16.93142 | -61.04988 | 16743 ft | 373 kts | 231° |
| 2026-05-05 19:49 | 16.91458 | -61.07038 | 16269 ft | 370 kts | 231° |
| 2026-05-05 19:49 | 16.89789 | -61.09065 | 15801 ft | 367 kts | 231° |
| 2026-05-05 19:49 | 16.88135 | -61.11076 | 15317 ft | 363 kts | 231° |
| 2026-05-05 19:49 | 16.86497 | -61.13069 | 14873 ft | 361 kts | 230° |
| 2026-05-05 19:50 | 16.84866 | -61.15049 | 14404 ft | 358 kts | 230° |
| 2026-05-05 19:50 | 16.83250 | -61.17011 | 13943 ft | 355 kts | 230° |
| 2026-05-05 19:50 | 16.81647 | -61.18956 | 13445 ft | 352 kts | 230° |
| 2026-05-05 19:50 | 16.80054 | -61.20886 | 12965 ft | 349 kts | 229° |
| 2026-05-05 19:51 | 16.78479 | -61.22795 | 12520 ft | 346 kts | 229° |
| 2026-05-05 19:51 | 16.76914 | -61.24692 | 12061 ft | 344 kts | 229° |
| 2026-05-05 19:51 | 16.75354 | -61.26582 | 11601 ft | 343 kts | 229° |
| 2026-05-05 19:51 | 16.73803 | -61.28462 | 11156 ft | 341 kts | 229° |
| 2026-05-05 19:52 | 16.72255 | -61.30338 | 10703 ft | 340 kts | 229° |
| 2026-05-05 19:52 | 16.70715 | -61.32201 | 10320 ft | 336 kts | 228° |
| 2026-05-05 19:52 | 16.69222 | -61.34009 | 10211 ft | 322 kts | 228° |
| 2026-05-05 19:52 | 16.67794 | -61.35739 | 10110 ft | 309 kts | 228° |
| 2026-05-05 19:53 | 16.66411 | -61.37412 | 9866 ft | 302 kts | 228° |
| 2026-05-05 19:53 | 16.65042 | -61.39069 | 9461 ft | 302 kts | 227° |
| 2026-05-05 19:53 | 16.63671 | -61.40728 | 9103 ft | 301 kts | 227° |
| 2026-05-05 19:53 | 16.62307 | -61.42377 | 8752 ft | 300 kts | 227° |
| 2026-05-05 19:54 | 16.60944 | -61.44022 | 8401 ft | 299 kts | 227° |
| 2026-05-05 19:54 | 16.59609 | -61.45636 | 8019 ft | 297 kts | 227° |
| 2026-05-05 19:54 | 16.58263 | -61.47261 | 7665 ft | 295 kts | 227° |
| 2026-05-05 19:54 | 16.56923 | -61.48880 | 7322 ft | 294 kts | 227° |
| 2026-05-05 19:55 | 16.55594 | -61.50484 | 6979 ft | 292 kts | 227° |
| 2026-05-05 19:55 | 16.54271 | -61.52083 | 6639 ft | 291 kts | 226° |
| 2026-05-05 19:55 | 16.52950 | -61.53677 | 6267 ft | 290 kts | 226° |
| 2026-05-05 19:55 | 16.51636 | -61.55262 | 5936 ft | 288 kts | 226° |
| 2026-05-05 19:56 | 16.50328 | -61.56838 | 5594 ft | 286 kts | 226° |
| 2026-05-05 19:56 | 16.49031 | -61.58402 | 5257 ft | 284 kts | 227° |
| 2026-05-05 19:56 | 16.47752 | -61.59959 | 4952 ft | 281 kts | 228° |
| 2026-05-05 19:56 | 16.46615 | -61.61571 | 4822 ft | 270 kts | 233° |
| 2026-05-05 19:57 | 16.45583 | -61.63155 | 4709 ft | 258 kts | 233° |
| 2026-05-05 19:57 | 16.44600 | -61.64672 | 4592 ft | 248 kts | 233° |
| 2026-05-05 19:57 | 16.43649 | -61.66139 | 4375 ft | 242 kts | 233° |
| 2026-05-05 19:57 | 16.42708 | -61.67581 | 4102 ft | 240 kts | 232° |
| 2026-05-05 19:58 | 16.41749 | -61.68994 | 3820 ft | 237 kts | 228° |
| 2026-05-05 19:58 | 16.40484 | -61.69999 | 3562 ft | 226 kts | 196° |
| 2026-05-05 19:58 | 16.38976 | -61.70104 | 3439 ft | 217 kts | 167° |
| 2026-05-05 19:58 | 16.37536 | -61.69762 | 3333 ft | 207 kts | 162° |
| 2026-05-05 19:59 | 16.36191 | -61.69388 | 3277 ft | 194 kts | 162° |
| 2026-05-05 19:59 | 16.34900 | -61.69030 | 3089 ft | 191 kts | 162° |
| 2026-05-05 19:59 | 16.33615 | -61.68680 | 2968 ft | 191 kts | 162° |
| 2026-05-05 19:59 | 16.32318 | -61.68332 | 2906 ft | 193 kts | 162° |
| 2026-05-05 20:00 | 16.31071 | -61.67902 | 2824 ft | 186 kts | 151° |
| 2026-05-05 20:00 | 16.30162 | -61.67018 | 2625 ft | 182 kts | 122° |
| 2026-05-05 20:00 | 16.29577 | -61.65865 | 2343 ft | 175 kts | 115° |
| 2026-05-05 20:00 | 16.29067 | -61.64727 | 2103 ft | 174 kts | 114° |
| 2026-05-05 20:01 | 16.28568 | -61.63600 | 1877 ft | 173 kts | 111° |
| 2026-05-05 20:01 | 16.28265 | -61.62419 | 1650 ft | 165 kts | 101° |
| 2026-05-05 20:01 | 16.28049 | -61.61278 | 1412 ft | 156 kts | 101° |
| 2026-05-05 20:01 | 16.27838 | -61.60220 | 1220 ft | 144 kts | 101° |
| 2026-05-05 20:02 | 16.27648 | -61.59232 | 1013 ft | 134 kts | 99° |
| 2026-05-05 20:02 | 16.27518 | -61.58286 | 784 ft | 128 kts | 101° |
| 2026-05-05 20:02 | 16.27380 | -61.57395 | 653 ft | 126 kts | 107° |
| 2026-05-05 20:02 | 16.27160 | -61.56501 | 472 ft | 125 kts | 109° |
| 2026-05-05 20:03 | 16.26978 | -61.55600 | 330 ft | 132 kts | 103° |
| 2026-05-05 20:03 | 16.26809 | -61.54650 | 52 ft | 133 kts | 105° |
| 2026-05-05 20:03 | 16.26693 | -61.54063 | 31 ft | 122 kts | 104° |
| 2026-05-05 20:04 | 16.26597 | -61.53537 | 32 ft | 65 kts | 102° |
| 2026-05-05 20:04 | 16.26522 | -61.53141 | 33 ft | 50 kts | 101° |
| 2026-05-05 20:04 | 16.26465 | -61.52829 | 34 ft | 38 kts | 101° |
| 2026-05-05 20:04 | 16.26413 | -61.52580 | 36 ft | 34 kts | 100° |
| 2026-05-05 20:05 | 16.26373 | -61.52350 | 41 ft | 23 kts | 100° |
| 2026-05-05 20:05 | 16.26388 | -61.52247 | 43 ft | 12 kts | 44° |
| 2026-05-05 20:05 | 16.26475 | -61.52221 | 42 ft | 15 kts | 9° |
| 2026-05-05 20:05 | 16.26584 | -61.52200 | 42 ft | 17 kts | 11° |
| 2026-05-05 20:06 | 16.26700 | -61.52185 | 42 ft | 12 kts | 341° |
| 2026-05-05 20:06 | 16.26738 | -61.52264 | 41 ft | 12 kts | 281° |
| 2026-05-05 20:06 | 16.26754 | -61.52352 | 40 ft | 4 kts | 280° |
| 2026-05-05 20:06 | 16.26758 | -61.52372 | 40 ft | 5 kts | 280° |
| 2026-05-05 20:07 | 16.26765 | -61.52418 | 40 ft | 8 kts | 280° |
| 2026-05-05 20:07 | 16.26779 | -61.52489 | 39 ft | 12 kts | 281° |
| 2026-05-05 20:07 | 16.26798 | -61.52574 | 38 ft | 6 kts | 298° |
| 2026-05-05 20:07 | 16.26837 | -61.52593 | 38 ft | 8 kts | 340° |
| 2026-05-05 20:08 | 16.26868 | -61.52603 | 38 ft | 0 kts | 342° |
| 2026-05-05 20:08 | 16.26869 | -61.52604 | 38 ft | 1 kts | 342° |
| 2026-05-05 20:08 | 16.26880 | -61.52607 | 38 ft | 2 kts | 342° |
| 2026-05-05 20:08 | 16.26890 | -61.52611 | 38 ft | 0 kts | 343° |